Observation data for Fritch on 12/13/2019      Previous  Date       Current Mesonet Observations  Soil Data  Daily Summary Page  Observations in Plain Language
KFR1 130600Z 33003KT 01/M01 A2999 RMK A01 T00111008  RH  087%=      5-min Rain = 0
KFR1 130601Z 32003KT 01/M01 A2999 RMK A01 T00121008  RH  086%=      5-min Rain = 0
KFR1 130602Z 31002KT 01/M01 A2999 RMK A01 T00131009  RH  086%=      5-min Rain = 0
KFR1 130603Z 31002KT 01/M01 A2999 RMK A01 T00131009  RH  085%=      5-min Rain = 0
KFR1 130604Z 31002KT 01/M01 A2999 RMK A01 T00131010  RH  085%=      5-min Rain = 0
KFR1 130605Z 32003KT 01/M01 A2999 RMK A01 T00131010  RH  085%=      5-min Rain = 0
KFR1 130606Z 34003KT 01/M01 A2999 RMK A01 T00131010  RH  085%=      5-min Rain = 0
KFR1 130607Z 34003KT 01/M01 A2999 RMK A01 T00131010  RH  085%=      5-min Rain = 0
KFR1 130608Z 35003KT 01/M01 A2999 RMK A01 T00131010  RH  085%=      5-min Rain = 0
KFR1 130609Z 35003KT 01/M01 A2999 RMK A01 T00131010  RH  085%=      5-min Rain = 0
KFR1 130610Z 01002KT 01/M01 A2999 RMK A01 T00121011  RH  085%=      5-min Rain = 0
KFR1 130611Z 01002KT 01/M01 A2998 RMK A01 T00111012  RH  085%=      5-min Rain = 0
KFR1 130612Z 01001KT 01/M01 A2998 RMK A01 T00111012  RH  085%=      5-min Rain = 0
KFR1 130613Z 01000KT 01/M01 A2998 RMK A01 T00101012  RH  085%=      5-min Rain = 0
KFR1 130614Z 00000KT 01/M01 A2998 RMK A01 T00101012  RH  086%=      5-min Rain = 0
KFR1 130615Z 00000KT 01/M01 A2998 RMK A01 T00101011  RH  086%=      5-min Rain = 0
KFR1 130616Z 00000KT 01/M01 A2998 RMK A01 T00101011  RH  086%=      5-min Rain = 0
KFR1 130617Z 00000KT 01/M01 A2998 RMK A01 T00101011  RH  086%=      5-min Rain = 0
KFR1 130618Z 24002KT 01/M01 A2998 RMK A01 T00101011  RH  086%=      5-min Rain = 0
KFR1 130619Z 24002KT 01/M01 A2998 RMK A01 T00101011  RH  086%=      5-min Rain = 0
KFR1 130620Z 25002KT 01/M01 A2998 RMK A01 T00091014  RH  085%=      5-min Rain = 0
KFR1 130621Z 25002KT 01/M02 A2998 RMK A01 T00081015  RH  085%=      5-min Rain = 0
KFR1 130622Z 25002KT 01/M02 A2998 RMK A01 T00071015  RH  085%=      5-min Rain = 0
KFR1 130623Z 25002KT 01/M01 A2998 RMK A01 T00061014  RH  086%=      5-min Rain = 0
KFR1 130624Z 26002KT 01/M01 A2999 RMK A01 T00071013  RH  087%=      5-min Rain = 0
KFR1 130625Z 26002KT 01/M01 A2999 RMK A01 T00061013  RH  087%=      5-min Rain = 0
KFR1 130626Z 26002KT 01/M01 A2999 RMK A01 T00071012  RH  087%=      5-min Rain = 0
KFR1 130627Z 24002KT 01/M01 A2998 RMK A01 T00071012  RH  087%=      5-min Rain = 0
KFR1 130628Z 24002KT 01/M01 A2998 RMK A01 T00081013  RH  086%=      5-min Rain = 0
KFR1 130629Z 24002KT 01/M01 A2998 RMK A01 T00081013  RH  086%=      5-min Rain = 0
KFR1 130630Z 24002KT 01/M01 A2998 RMK A01 T00081014  RH  086%=      5-min Rain = 0
KFR1 130631Z 24002KT 01/M01 A2998 RMK A01 T00081014  RH  085%=      5-min Rain = 0
KFR1 130632Z 23002KT 01/M02 A2998 RMK A01 T00071015  RH  085%=      5-min Rain = 0
KFR1 130633Z 23001KT 01/M02 A2998 RMK A01 T00071015  RH  085%=      5-min Rain = 0
KFR1 130634Z 22002KT 01/M01 A2998 RMK A01 T00071014  RH  086%=      5-min Rain = 0
KFR1 130635Z 22002KT 01/M01 A2998 RMK A01 T00071014  RH  086%=      5-min Rain = 0
KFR1 130636Z 23002KT 01/M01 A2998 RMK A01 T00081013  RH  086%=      5-min Rain = 0
KFR1 130637Z 22002KT 01/M01 A2998 RMK A01 T00081014  RH  085%=      5-min Rain = 0
KFR1 130638Z 22003KT 01/M02 A2998 RMK A01 T00081016  RH  084%=      5-min Rain = 0
KFR1 130639Z 22003KT 01/M02 A2998 RMK A01 T00071018  RH  083%=      5-min Rain = 0
KFR1 130640Z 22003KT 01/M02 A2998 RMK A01 T00071021  RH  082%=      5-min Rain = 0
KFR1 130641Z 22004KT 01/M03 A2998 RMK A01 T00061025  RH  080%=      5-min Rain = 0
KFR1 130642Z 22004KT 01/M03 A2998 RMK A01 T00061028  RH  078%=      5-min Rain = 0
KFR1 130643Z 22004KT 01/M03 A2998 RMK A01 T00061030  RH  076%=      5-min Rain = 0
KFR1 130644Z 22004KT 01/M03 A2998 RMK A01 T00071031  RH  076%=      5-min Rain = 0
KFR1 130645Z 22005KT 01/M03 A2998 RMK A01 T00091031  RH  075%=      5-min Rain = 0
KFR1 130646Z 22005KT 01/M03 A2998 RMK A01 T00101031  RH  074%=      5-min Rain = 0
KFR1 130647Z 22005KT 01/M03 A2998 RMK A01 T00111031  RH  074%=      5-min Rain = 0
KFR1 130648Z 22005KT 01/M03 A2997 RMK A01 T00121031  RH  073%=      5-min Rain = 0
KFR1 130649Z 21004KT 01/M03 A2997 RMK A01 T00131032  RH  072%=      5-min Rain = 0
KFR1 130650Z 20004KT 01/M03 A2997 RMK A01 T00141032  RH  072%=      5-min Rain = 0
KFR1 130651Z 21004KT 02/M03 A2997 RMK A01 T00161031  RH  071%=      5-min Rain = 0
KFR1 130652Z 21004KT 02/M03 A2997 RMK A01 T00171032  RH  070%=      5-min Rain = 0
KFR1 130653Z 20004KT 02/M03 A2997 RMK A01 T00171032  RH  070%=      5-min Rain = 0
KFR1 130654Z 20004KT 02/M03 A2997 RMK A01 T00161033  RH  070%=      5-min Rain = 0
KFR1 130655Z 20004KT 02/M03 A2997 RMK A01 T00151033  RH  070%=      5-min Rain = 0
KFR1 130656Z 20004KT 01/M03 A2997 RMK A01 T00141034  RH  071%=      5-min Rain = 0
KFR1 130657Z 21004KT 01/M03 A2997 RMK A01 T00131033  RH  071%=      5-min Rain = 0
KFR1 130658Z 21005KT 01/M03 A2997 RMK A01 T00121034  RH  071%=      5-min Rain = 0
KFR1 130659Z 22005KT 01/M03 A2997 RMK A01 T00121033  RH  072%=      5-min Rain = 0
KFR1 130700Z 22005KT 02/M03 A2997 RMK A01 T00151032  RH  071%=      5-min Rain = 0
KFR1 130701Z 23005KT 02/M03 A2997 RMK A01 T00181031  RH  070%=      5-min Rain = 0
KFR1 130702Z 23006KT 02/M03 A2997 RMK A01 T00211030  RH  069%=      5-min Rain = 0
KFR1 130703Z 22006KT 02/M03 A2997 RMK A01 T00231030  RH  068%=      5-min Rain = 0
KFR1 130704Z 22006KT 02/M03 A2997 RMK A01 T00241031  RH  067%=      5-min Rain = 0
KFR1 130705Z 22006KT 02/M03 A2997 RMK A01 T00241031  RH  067%=      5-min Rain = 0
KFR1 130706Z 22005KT 02/M03 A2997 RMK A01 T00241032  RH  067%=      5-min Rain = 0
KFR1 130707Z 22004KT 02/M03 A2997 RMK A01 T00221033  RH  067%=      5-min Rain = 0
KFR1 130708Z 22004KT 02/M03 A2997 RMK A01 T00191034  RH  068%=      5-min Rain = 0
KFR1 130709Z 22004KT 02/M03 A2996 RMK A01 T00171034  RH  069%=      5-min Rain = 0
KFR1 130710Z 22004KT 01/M04 A2996 RMK A01 T00141035  RH  070%=      5-min Rain = 0
KFR1 130711Z 22003KT 01/M04 A2996 RMK A01 T00121035  RH  071%=      5-min Rain = 0
KFR1 130712Z 22003KT 01/M04 A2996 RMK A01 T00111035  RH  071%=      5-min Rain = 0
KFR1 130713Z 23004KT 01/M04 A2996 RMK A01 T00111035  RH  072%=      5-min Rain = 0
KFR1 130714Z 23003KT 01/M04 A2996 RMK A01 T00111035  RH  072%=      5-min Rain = 0
KFR1 130715Z 24004KT 01/M03 A2996 RMK A01 T00121034  RH  071%=      5-min Rain = 0
KFR1 130716Z 23004KT 01/M03 A2996 RMK A01 T00131033  RH  071%=      5-min Rain = 0
KFR1 130717Z 23005KT 01/M03 A2996 RMK A01 T00141033  RH  071%=      5-min Rain = 0
KFR1 130718Z 23004KT 02/M03 A2996 RMK A01 T00161033  RH  070%=      5-min Rain = 0
KFR1 130719Z 23004KT 02/M03 A2996 RMK A01 T00181033  RH  069%=      5-min Rain = 0
KFR1 130720Z 22004KT 02/M03 A2996 RMK A01 T00171034  RH  069%=      5-min Rain = 0
KFR1 130721Z 21004KT 02/M03 A2996 RMK A01 T00161034  RH  069%=      5-min Rain = 0
KFR1 130722Z 20004KT 02/M03 A2995 RMK A01 T00161034  RH  070%=      5-min Rain = 0
KFR1 130723Z 20004KT 02/M03 A2995 RMK A01 T00161034  RH  069%=      5-min Rain = 0
KFR1 130724Z 20003KT 02/M03 A2995 RMK A01 T00161034  RH  069%=      5-min Rain = 0
KFR1 130725Z 20003KT 02/M03 A2995 RMK A01 T00161034  RH  069%=      5-min Rain = 0
KFR1 130726Z 20003KT 02/M03 A2995 RMK A01 T00161034  RH  069%=      5-min Rain = 0
KFR1 130727Z 20003KT 02/M03 A2995 RMK A01 T00161034  RH  069%=      5-min Rain = 0
KFR1 130728Z 20004KT 02/M03 A2995 RMK A01 T00161034  RH  069%=      5-min Rain = 0
KFR1 130729Z 21004KT 02/M03 A2995 RMK A01 T00161034  RH  069%=      5-min Rain = 0
KFR1 130730Z 21004KT 02/M04 A2995 RMK A01 T00161035  RH  069%=      5-min Rain = 0
KFR1 130731Z 21004KT 02/M04 A2995 RMK A01 T00161035  RH  069%=      5-min Rain = 0
KFR1 130732Z 22004KT 02/M04 A2995 RMK A01 T00161035  RH  069%=      5-min Rain = 0
KFR1 130733Z 22004KT 02/M04 A2995 RMK A01 T00161035  RH  069%=      5-min Rain = 0
KFR1 130734Z 22004KT 02/M04 A2995 RMK A01 T00161035  RH  069%=      5-min Rain = 0
KFR1 130735Z 22004KT 02/M04 A2995 RMK A01 T00161035  RH  069%=      5-min Rain = 0
KFR1 130736Z 21005KT 02/M04 A2995 RMK A01 T00161035  RH  069%=      5-min Rain = 0
KFR1 130737Z 21005KT 02/M03 A2995 RMK A01 T00161034  RH  069%=      5-min Rain = 0
KFR1 130738Z 21005KT 02/M03 A2995 RMK A01 T00171034  RH  069%=      5-min Rain = 0
KFR1 130739Z 21006KT 02/M03 A2995 RMK A01 T00171034  RH  069%=      5-min Rain = 0
KFR1 130740Z 22006KT 02/M03 A2994 RMK A01 T00171034  RH  069%=      5-min Rain = 0
KFR1 130741Z 21006KT 02/M03 A2994 RMK A01 T00181033  RH  069%=      5-min Rain = 0
KFR1 130742Z 22006KT 02/M03 A2994 RMK A01 T00191033  RH  068%=      5-min Rain = 0
KFR1 130743Z 22005KT 02/M03 A2994 RMK A01 T00191033  RH  068%=      5-min Rain = 0
KFR1 130744Z 23006KT 02/M03 A2994 RMK A01 T00191034  RH  068%=      5-min Rain = 0
KFR1 130745Z 23005KT 02/M03 A2994 RMK A01 T00191034  RH  068%=      5-min Rain = 0
KFR1 130746Z 23005KT 02/M04 A2994 RMK A01 T00181035  RH  068%=      5-min Rain = 0
KFR1 130747Z 23006KT 02/M04 A2994 RMK A01 T00161035  RH  069%=      5-min Rain = 0
KFR1 130748Z 23006KT 01/M04 A2994 RMK A01 T00141036  RH  069%=      5-min Rain = 0
KFR1 130749Z 23005KT 01/M04 A2994 RMK A01 T00131036  RH  070%=      5-min Rain = 0
KFR1 130750Z 24005KT 01/M04 A2995 RMK A01 T00111036  RH  071%=      5-min Rain = 0
KFR1 130751Z 24005KT 01/M04 A2995 RMK A01 T00101036  RH  071%=      5-min Rain = 0
KFR1 130752Z 25005KT 01/M04 A2995 RMK A01 T00091036  RH  072%=      5-min Rain = 0
KFR1 130753Z 25004KT 01/M04 A2995 RMK A01 T00081035  RH  073%=      5-min Rain = 0
KFR1 130754Z 24005KT 01/M04 A2995 RMK A01 T00081035  RH  073%=      5-min Rain = 0
KFR1 130755Z 26005KT 01/M03 A2995 RMK A01 T00091034  RH  073%=      5-min Rain = 0
KFR1 130756Z 24004KT 01/M03 A2995 RMK A01 T00101034  RH  073%=      5-min Rain = 0
KFR1 130757Z 22006KT 01/M03 A2995 RMK A01 T00111033  RH  072%=      5-min Rain = 0
KFR1 130758Z 22005KT 01/M03 A2995 RMK A01 T00131033  RH  072%=      5-min Rain = 0
KFR1 130759Z 22006KT 01/M03 A2995 RMK A01 T00141033  RH  071%=      5-min Rain = 0
KFR1 130800Z 24004KT 02/M03 A2995 RMK A01 T00151032  RH  071%=      5-min Rain = 0
KFR1 130801Z 23004KT 02/M03 A2995 RMK A01 T00151033  RH  070%=      5-min Rain = 0
KFR1 130802Z 23004KT 01/M03 A2995 RMK A01 T00131034  RH  071%=      5-min Rain = 0
KFR1 130803Z 23003KT 01/M03 A2995 RMK A01 T00121034  RH  072%=      5-min Rain = 0
KFR1 130804Z 23003KT 01/M03 A2995 RMK A01 T00111033  RH  073%=      5-min Rain = 0
KFR1 130805Z 23004KT 01/M03 A2995 RMK A01 T00101034  RH  073%=      5-min Rain = 0
KFR1 130806Z 22005KT 01/M03 A2995 RMK A01 T00091034  RH  073%=      5-min Rain = 0
KFR1 130807Z 24003KT 01/M03 A2995 RMK A01 T00111033  RH  072%=      5-min Rain = 0
KFR1 130808Z 26003KT 01/M03 A2995 RMK A01 T00121034  RH  072%=      5-min Rain = 0
KFR1 130809Z 24002KT 01/M03 A2995 RMK A01 T00121034  RH  071%=      5-min Rain = 0
KFR1 130810Z 25003KT 01/M03 A2995 RMK A01 T00111034  RH  072%=      5-min Rain = 0
KFR1 130811Z 25004KT 01/M03 A2995 RMK A01 T00111034  RH  072%=      5-min Rain = 0
KFR1 130812Z 25004KT 01/M03 A2995 RMK A01 T00111034  RH  072%=      5-min Rain = 0
KFR1 130813Z 27002KT 01/M03 A2995 RMK A01 T00111034  RH  072%=      5-min Rain = 0
KFR1 130814Z 28002KT 01/M03 A2995 RMK A01 T00111034  RH  072%=      5-min Rain = 0
KFR1 130815Z 28002KT 01/M04 A2995 RMK A01 T00091035  RH  072%=      5-min Rain = 0
KFR1 130816Z 27001KT 01/M04 A2995 RMK A01 T00081035  RH  073%=      5-min Rain = 0
KFR1 130817Z 26001KT 01/M03 A2995 RMK A01 T00081034  RH  073%=      5-min Rain = 0
KFR1 130818Z 28001KT 01/M03 A2995 RMK A01 T00081034  RH  074%=      5-min Rain = 0
KFR1 130819Z 29000KT 01/M03 A2995 RMK A01 T00071034  RH  074%=      5-min Rain = 0
KFR1 130820Z 00000KT 01/M03 A2995 RMK A01 T00071034  RH  074%=      5-min Rain = 0
KFR1 130821Z 00000KT 01/M03 A2995 RMK A01 T00071034  RH  074%=      5-min Rain = 0
KFR1 130822Z 00000KT 00/M03 A2995 RMK A01 T00041034  RH  075%=      5-min Rain = 0
KFR1 130823Z 00000KT 00/M03 A2995 RMK A01 T00021034  RH  077%=      5-min Rain = 0
KFR1 130824Z 00000KT 00/04 A2995 RMK A01 T00000-35  RH  077%=      5-min Rain = 0
KFR1 130825Z 00000KT M00/M03 A2995 RMK A01 T10011034  RH  078%=      5-min Rain = 0
KFR1 130826Z 00000KT M00/M03 A2995 RMK A01 T10021033  RH  079%=      5-min Rain = 0
KFR1 130827Z 20000KT M00/M03 A2995 RMK A01 T10031033  RH  080%=      5-min Rain = 0
KFR1 130828Z 28001KT M00/M03 A2995 RMK A01 T10031033  RH  081%=      5-min Rain = 0
KFR1 130829Z 28002KT M00/M03 A2995 RMK A01 T10031032  RH  081%=      5-min Rain = 0
KFR1 130830Z 29002KT M00/M03 A2995 RMK A01 T10021032  RH  080%=      5-min Rain = 0
KFR1 130831Z 28003KT M00/M03 A2995 RMK A01 T10021032  RH  080%=      5-min Rain = 0
KFR1 130832Z 27004KT M00/M03 A2995 RMK A01 T10011034  RH  079%=      5-min Rain = 0
KFR1 130833Z 26005KT M00/M04 A2995 RMK A01 T10011035  RH  078%=      5-min Rain = 0
KFR1 130834Z 25005KT M00/M04 A2995 RMK A01 T10011035  RH  078%=      5-min Rain = 0
KFR1 130835Z 25006KT M00/M04 A2995 RMK A01 T10021036  RH  078%=      5-min Rain = 0
KFR1 130836Z 25006KT M00/M04 A2995 RMK A01 T10041038  RH  078%=      5-min Rain = 0
KFR1 130837Z 24006KT M01/M04 A2995 RMK A01 T10061039  RH  078%=      5-min Rain = 0
KFR1 130838Z 24006KT M01/M04 A2995 RMK A01 T10081039  RH  079%=      5-min Rain = 0
KFR1 130839Z 23006KT M01/M04 A2994 RMK A01 T10081039  RH  080%=      5-min Rain = 0
KFR1 130840Z 23006KT M01/M04 A2994 RMK A01 T10071038  RH  079%=      5-min Rain = 0
KFR1 130841Z 23005KT M01/M04 A2994 RMK A01 T10061038  RH  079%=      5-min Rain = 0
KFR1 130842Z 23005KT M01/M04 A2994 RMK A01 T10051038  RH  079%=      5-min Rain = 0
KFR1 130843Z 23005KT M01/M04 A2994 RMK A01 T10051039  RH  078%=      5-min Rain = 0
KFR1 130844Z 22005KT M01/M04 A2994 RMK A01 T10051038  RH  078%=      5-min Rain = 0
KFR1 130845Z 22005KT M01/M04 A2994 RMK A01 T10051038  RH  078%=      5-min Rain = 0
KFR1 130846Z 23005KT M00/M04 A2994 RMK A01 T10041038  RH  078%=      5-min Rain = 0
KFR1 130847Z 23005KT M00/M04 A2994 RMK A01 T10031038  RH  077%=      5-min Rain = 0
KFR1 130848Z 22005KT M00/M04 A2994 RMK A01 T10031039  RH  077%=      5-min Rain = 0
KFR1 130849Z 23004KT M00/M04 A2994 RMK A01 T10031039  RH  077%=      5-min Rain = 0
KFR1 130850Z 23005KT M00/M04 A2994 RMK A01 T10031039  RH  077%=      5-min Rain = 0
KFR1 130851Z 23005KT M00/M04 A2994 RMK A01 T10041040  RH  077%=      5-min Rain = 0
KFR1 130852Z 22006KT M01/M04 A2993 RMK A01 T10051040  RH  077%=      5-min Rain = 0
KFR1 130853Z 22005KT M01/M04 A2993 RMK A01 T10061040  RH  077%=      5-min Rain = 0
KFR1 130854Z 22006KT M01/M04 A2993 RMK A01 T10061040  RH  078%=      5-min Rain = 0
KFR1 130855Z 22005KT M01/M04 A2993 RMK A01 T10051039  RH  077%=      5-min Rain = 0
KFR1 130856Z 22005KT M00/M04 A2993 RMK A01 T10031039  RH  077%=      5-min Rain = 0
KFR1 130857Z 21005KT M00/M04 A2993 RMK A01 T10021039  RH  076%=      5-min Rain = 0
KFR1 130858Z 21005KT M00/M04 A2993 RMK A01 T10021039  RH  076%=      5-min Rain = 0
KFR1 130859Z 21005KT M00/M04 A2993 RMK A01 T10021039  RH  076%=      5-min Rain = 0
KFR1 130900Z 21005KT M00/M04 A2993 RMK A01 T10011038  RH  076%=      5-min Rain = 0
KFR1 130901Z 21005KT 00/04 A2993 RMK A01 T00-00-38  RH  075%=      5-min Rain = 0
KFR1 130902Z 21005KT 00/04 A2993 RMK A01 T00-00-38  RH  075%=      5-min Rain = 0
KFR1 130903Z 21005KT M00/M04 A2993 RMK A01 T10011039  RH  076%=      5-min Rain = 0
KFR1 130904Z 22005KT M00/M04 A2993 RMK A01 T10011038  RH  076%=      5-min Rain = 0
KFR1 130905Z 22006KT M00/M04 A2993 RMK A01 T10011038  RH  076%=      5-min Rain = 0
KFR1 130906Z 21006KT M00/M04 A2993 RMK A01 T10011038  RH  076%=      5-min Rain = 0
KFR1 130907Z 21006KT M00/M04 A2993 RMK A01 T10011038  RH  076%=      5-min Rain = 0
KFR1 130908Z 22006KT M00/M04 A2993 RMK A01 T10011038  RH  076%=      5-min Rain = 0
KFR1 130909Z 22006KT 00/04 A2993 RMK A01 T00-00-37  RH  076%=      5-min Rain = 0
KFR1 130910Z 22006KT 00/04 A2993 RMK A01 T00000-37  RH  076%=      5-min Rain = 0
KFR1 130911Z 22007KT 00/M04 A2993 RMK A01 T00011037  RH  076%=      5-min Rain = 0
KFR1 130912Z 22007KT 00/M04 A2993 RMK A01 T00011037  RH  075%=      5-min Rain = 0
KFR1 130913Z 22007KT 00/M04 A2993 RMK A01 T00011037  RH  075%=      5-min Rain = 0
KFR1 130914Z 22006KT 00/04 A2993 RMK A01 T00000-38  RH  076%=      5-min Rain = 0
KFR1 130915Z 23007KT 00/04 A2993 RMK A01 T00-00-38  RH  076%=      5-min Rain = 0
KFR1 130916Z 23008KT 00/04 A2993 RMK A01 T00-00-37  RH  076%=      5-min Rain = 0
KFR1 130917Z 23008KT 00/04 A2993 RMK A01 T00-00-38  RH  076%=      5-min Rain = 0
KFR1 130918Z 23008KT M00/M04 A2993 RMK A01 T10011037  RH  076%=      5-min Rain = 0
KFR1 130919Z 23008KT M00/M04 A2993 RMK A01 T10011037  RH  077%=      5-min Rain = 0
KFR1 130920Z 23008KT M00/M04 A2993 RMK A01 T10011037  RH  077%=      5-min Rain = 0
KFR1 130921Z 23007KT M00/M04 A2993 RMK A01 T10011037  RH  077%=      5-min Rain = 0
KFR1 130922Z 22007KT M00/M04 A2993 RMK A01 T10021038  RH  077%=      5-min Rain = 0
KFR1 130923Z 23006KT M00/M04 A2993 RMK A01 T10011037  RH  077%=      5-min Rain = 0
KFR1 130924Z 23007KT M00/M04 A2993 RMK A01 T10011038  RH  076%=      5-min Rain = 0
KFR1 130925Z 23006KT M00/M04 A2994 RMK A01 T10021039  RH  076%=      5-min Rain = 0
KFR1 130926Z 22007KT M00/M04 A2994 RMK A01 T10031039  RH  077%=      5-min Rain = 0
KFR1 130927Z 23006KT M00/M04 A2994 RMK A01 T10031039  RH  077%=      5-min Rain = 0
KFR1 130928Z 23007KT M00/M04 A2994 RMK A01 T10031039  RH  077%=      5-min Rain = 0
KFR1 130929Z 23007KT M00/M04 A2994 RMK A01 T10041039  RH  077%=      5-min Rain = 0
KFR1 130930Z 23007KT M00/M04 A2994 RMK A01 T10031038  RH  077%=      5-min Rain = 0
KFR1 130931Z 23007KT M00/M04 A2994 RMK A01 T10031038  RH  077%=      5-min Rain = 0
KFR1 130932Z 22007KT M00/M04 A2993 RMK A01 T10031039  RH  077%=      5-min Rain = 0
KFR1 130933Z 22007KT M00/M04 A2993 RMK A01 T10021038  RH  077%=      5-min Rain = 0
KFR1 130934Z 22006KT M00/M04 A2993 RMK A01 T10021038  RH  077%=      5-min Rain = 0
KFR1 130935Z 22006KT M00/M04 A2993 RMK A01 T10021038  RH  077%=      5-min Rain = 0
KFR1 130936Z 22005KT M00/M04 A2993 RMK A01 T10031039  RH  077%=      5-min Rain = 0
KFR1 130937Z 22005KT M00/M04 A2993 RMK A01 T10031039  RH  077%=      5-min Rain = 0
KFR1 130938Z 22005KT M00/M04 A2993 RMK A01 T10031039  RH  077%=      5-min Rain = 0
KFR1 130939Z 21004KT M00/M04 A2993 RMK A01 T10041039  RH  077%=      5-min Rain = 0
KFR1 130940Z 22005KT M00/M04 A2993 RMK A01 T10041040  RH  077%=      5-min Rain = 0
KFR1 130941Z 21006KT M00/M04 A2993 RMK A01 T10041040  RH  077%=      5-min Rain = 0
KFR1 130942Z 21006KT M01/M04 A2993 RMK A01 T10051040  RH  077%=      5-min Rain = 0
KFR1 130943Z 21005KT M01/M04 A2993 RMK A01 T10051040  RH  077%=      5-min Rain = 0
KFR1 130944Z 21006KT M01/M04 A2993 RMK A01 T10051040  RH  077%=      5-min Rain = 0
KFR1 130945Z 21005KT M01/M04 A2993 RMK A01 T10061040  RH  077%=      5-min Rain = 0
KFR1 130946Z 21005KT M01/M04 A2993 RMK A01 T10061041  RH  078%=      5-min Rain = 0
KFR1 130947Z 21006KT M01/M04 A2993 RMK A01 T10071041  RH  078%=      5-min Rain = 0
KFR1 130948Z 20006KT M01/M04 A2993 RMK A01 T10071041  RH  078%=      5-min Rain = 0
KFR1 130949Z 20006KT M01/M04 A2993 RMK A01 T10071040  RH  078%=      5-min Rain = 0
KFR1 130950Z 20007KT M01/M04 A2993 RMK A01 T10071040  RH  078%=      5-min Rain = 0
KFR1 130951Z 20007KT M01/M04 A2993 RMK A01 T10071040  RH  078%=      5-min Rain = 0
KFR1 130952Z 20008KT M01/M04 A2992 RMK A01 T10061040  RH  078%=      5-min Rain = 0
KFR1 130953Z 20007KT M01/M04 A2992 RMK A01 T10061039  RH  078%=      5-min Rain = 0
KFR1 130954Z 19007KT M01/M04 A2992 RMK A01 T10051039  RH  078%=      5-min Rain = 0
KFR1 130955Z 19008KT M00/M04 A2992 RMK A01 T10041039  RH  077%=      5-min Rain = 0
KFR1 130956Z 19008KT M00/M04 A2992 RMK A01 T10041040  RH  077%=      5-min Rain = 0
KFR1 130957Z 19008KT M01/M04 A2992 RMK A01 T10061040  RH  077%=      5-min Rain = 0
KFR1 130958Z 19008KT M01/M04 A2992 RMK A01 T10061040  RH  078%=      5-min Rain = 0
KFR1 130959Z 19007KT M01/M04 A2992 RMK A01 T10061040  RH  078%=      5-min Rain = 0
KFR1 131000Z 20006KT M01/M04 A2992 RMK A01 T10051040  RH  078%=      5-min Rain = 0
KFR1 131001Z 21006KT M01/M04 A2992 RMK A01 T10061040  RH  078%=      5-min Rain = 0
KFR1 131002Z 21006KT M01/M04 A2992 RMK A01 T10071041  RH  078%=      5-min Rain = 0
KFR1 131003Z 21006KT M01/M04 A2992 RMK A01 T10071041  RH  078%=      5-min Rain = 0
KFR1 131004Z 23005KT M01/M04 A2992 RMK A01 T10071040  RH  078%=      5-min Rain = 0
KFR1 131005Z 23005KT M01/M04 A2993 RMK A01 T10051040  RH  077%=      5-min Rain = 0
KFR1 131006Z 22005KT M01/M04 A2993 RMK A01 T10051040  RH  077%=      5-min Rain = 0
KFR1 131007Z 22005KT M00/M04 A2993 RMK A01 T10031039  RH  077%=      5-min Rain = 0
KFR1 131008Z 22005KT M00/M04 A2993 RMK A01 T10021038  RH  076%=      5-min Rain = 0
KFR1 131009Z 22006KT 00/04 A2993 RMK A01 T00-00-38  RH  076%=      5-min Rain = 0
KFR1 131010Z 22005KT 00/04 A2993 RMK A01 T00000-39  RH  075%=      5-min Rain = 0
KFR1 131011Z 22006KT 00/04 A2993 RMK A01 T00000-39  RH  075%=      5-min Rain = 0
KFR1 131012Z 22006KT M00/M04 A2993 RMK A01 T10011040  RH  075%=      5-min Rain = 0
KFR1 131013Z 22006KT M00/M04 A2993 RMK A01 T10021040  RH  075%=      5-min Rain = 0
KFR1 131014Z 22005KT M00/M04 A2993 RMK A01 T10021040  RH  076%=      5-min Rain = 0
KFR1 131015Z 22007KT M00/M04 A2992 RMK A01 T10021040  RH  076%=      5-min Rain = 0
KFR1 131016Z 22006KT M00/M04 A2992 RMK A01 T10021040  RH  076%=      5-min Rain = 0
KFR1 131017Z 22006KT M00/M04 A2992 RMK A01 T10021040  RH  076%=      5-min Rain = 0
KFR1 131018Z 22006KT M00/M04 A2992 RMK A01 T10031040  RH  076%=      5-min Rain = 0
KFR1 131019Z 22006KT M00/M04 A2992 RMK A01 T10031040  RH  076%=      5-min Rain = 0
KFR1 131020Z 22006KT M00/M04 A2992 RMK A01 T10021039  RH  076%=      5-min Rain = 0
KFR1 131021Z 21007KT M00/M04 A2992 RMK A01 T10011039  RH  076%=      5-min Rain = 0
KFR1 131022Z 21007KT M00/M04 A2992 RMK A01 T10011039  RH  075%=      5-min Rain = 0
KFR1 131023Z 21007KT M00/M04 A2992 RMK A01 T10011039  RH  075%=      5-min Rain = 0
KFR1 131024Z 21007KT M00/M04 A2992 RMK A01 T10011039  RH  075%=      5-min Rain = 0
KFR1 131025Z 21007KT M00/M04 A2992 RMK A01 T10011039  RH  075%=      5-min Rain = 0
KFR1 131026Z 21007KT M00/M04 A2992 RMK A01 T10011040  RH  075%=      5-min Rain = 0
KFR1 131027Z 22007KT M00/M04 A2992 RMK A01 T10011040  RH  075%=      5-min Rain = 0
KFR1 131028Z 22008KT 00/04 A2992 RMK A01 T00-00-39  RH  075%=      5-min Rain = 0
KFR1 131029Z 22008KT 00/M04 A2992 RMK A01 T00011038  RH  075%=      5-min Rain = 0
KFR1 131030Z 22008KT 00/M04 A2992 RMK A01 T00021037  RH  075%=      5-min Rain = 0
KFR1 131031Z 22009KT 00/M04 A2992 RMK A01 T00031038  RH  074%=      5-min Rain = 0
KFR1 131032Z 22008KT 00/M04 A2992 RMK A01 T00031039  RH  074%=      5-min Rain = 0
KFR1 131033Z 21008KT 00/M04 A2992 RMK A01 T00021039  RH  074%=      5-min Rain = 0
KFR1 131034Z 22008KT 00/M04 A2992 RMK A01 T00021039  RH  074%=      5-min Rain = 0
KFR1 131035Z 21008KT 00/M04 A2992 RMK A01 T00021039  RH  074%=      5-min Rain = 0
KFR1 131036Z 21009KT 00/M04 A2992 RMK A01 T00011040  RH  074%=      5-min Rain = 0
KFR1 131037Z 21008KT 00/04 A2992 RMK A01 T00-00-40  RH  074%=      5-min Rain = 0
KFR1 131038Z 21009KT M00/M04 A2992 RMK A01 T10011040  RH  075%=      5-min Rain = 0
KFR1 131039Z 21009KT 00/04 A2992 RMK A01 T00-00-40  RH  075%=      5-min Rain = 0
KFR1 131040Z 21009KT 00/04 A2992 RMK A01 T00000-39  RH  075%=      5-min Rain = 0
KFR1 131041Z 21010KT 00/04 A2992 RMK A01 T00000-39  RH  075%=      5-min Rain = 0
KFR1 131042Z 21010KT 00/M04 A2992 RMK A01 T00021039  RH  074%=      5-min Rain = 0
KFR1 131043Z 21008KT 00/M04 A2992 RMK A01 T00021039  RH  074%=      5-min Rain = 0
KFR1 131044Z 21008KT 00/M04 A2992 RMK A01 T00021040  RH  074%=      5-min Rain = 0
KFR1 131045Z 20008KT 00/M04 A2991 RMK A01 T00011040  RH  074%=      5-min Rain = 0
KFR1 131046Z 20008KT M00/M04 A2991 RMK A01 T10011041  RH  075%=      5-min Rain = 0
KFR1 131047Z 20007KT M00/M04 A2991 RMK A01 T10021041  RH  075%=      5-min Rain = 0
KFR1 131048Z 21006KT M00/M04 A2991 RMK A01 T10041041  RH  076%=      5-min Rain = 0
KFR1 131049Z 21006KT M00/M04 A2992 RMK A01 T10041041  RH  076%=      5-min Rain = 0
KFR1 131050Z 22005KT M00/M04 A2992 RMK A01 T10031040  RH  076%=      5-min Rain = 0
KFR1 131051Z 22005KT M00/M04 A2992 RMK A01 T10021040  RH  076%=      5-min Rain = 0
KFR1 131052Z 22005KT M00/M04 A2992 RMK A01 T10011040  RH  075%=      5-min Rain = 0
KFR1 131053Z 23005KT 00/04 A2992 RMK A01 T00000-40  RH  075%=      5-min Rain = 0
KFR1 131054Z 24007KT 00/04 A2992 RMK A01 T00000-40  RH  075%=      5-min Rain = 0
KFR1 131055Z 22006KT 00/M04 A2992 RMK A01 T00021038  RH  074%=      5-min Rain = 0
KFR1 131056Z 23007KT 01/M04 A2992 RMK A01 T00051038  RH  073%=      5-min Rain = 0
KFR1 131057Z 22006KT 01/M04 A2992 RMK A01 T00051039  RH  072%=      5-min Rain = 0
KFR1 131058Z 22005KT 01/M04 A2991 RMK A01 T00051039  RH  072%=      5-min Rain = 0
KFR1 131059Z 22007KT 00/M04 A2991 RMK A01 T00041040  RH  073%=      5-min Rain = 0
KFR1 131100Z 22006KT 00/M04 A2991 RMK A01 T00031040  RH  073%=      5-min Rain = 0
KFR1 131101Z 22006KT 00/M04 A2991 RMK A01 T00041039  RH  073%=      5-min Rain = 0
KFR1 131102Z 23007KT 00/M04 A2991 RMK A01 T00041039  RH  073%=      5-min Rain = 0
KFR1 131103Z 22006KT 00/M04 A2991 RMK A01 T00041039  RH  073%=      5-min Rain = 0
KFR1 131104Z 22008KT 00/M04 A2991 RMK A01 T00031040  RH  073%=      5-min Rain = 0
KFR1 131105Z 21007KT 00/M04 A2991 RMK A01 T00021040  RH  073%=      5-min Rain = 0
KFR1 131106Z 21007KT 00/M04 A2991 RMK A01 T00021040  RH  074%=      5-min Rain = 0
KFR1 131107Z 21007KT 00/M04 A2991 RMK A01 T00011040  RH  074%=      5-min Rain = 0
KFR1 131108Z 20008KT 00/04 A2991 RMK A01 T00-00-40  RH  074%=      5-min Rain = 0
KFR1 131109Z 20009KT M00/M04 A2991 RMK A01 T10021041  RH  075%=      5-min Rain = 0
KFR1 131110Z 20009KT M00/M04 A299 RMK A01 T10021040  RH  075%=      5-min Rain = 0
KFR1 131111Z 20009KT M00/M04 A299 RMK A01 T10021040  RH  075%=      5-min Rain = 0
KFR1 131112Z 21010KT M00/M04 A299 RMK A01 T10021040  RH  075%=      5-min Rain = 0
KFR1 131113Z 21010KT 00/04 A299 RMK A01 T00000-39  RH  075%=      5-min Rain = 0
KFR1 131114Z 21011KT 00/M04 A299 RMK A01 T00021038  RH  074%=      5-min Rain = 0
KFR1 131115Z 21009KT 00/M04 A299 RMK A01 T00031038  RH  074%=      5-min Rain = 0
KFR1 131116Z 21009KT 00/M04 A299 RMK A01 T00031039  RH  073%=      5-min Rain = 0
KFR1 131117Z 21009KT 00/M04 A299 RMK A01 T00021040  RH  074%=      5-min Rain = 0
KFR1 131118Z 21008KT 00/M04 A299 RMK A01 T00021039  RH  074%=      5-min Rain = 0
KFR1 131119Z 21008KT 00/M04 A299 RMK A01 T00021039  RH  074%=      5-min Rain = 0
KFR1 131120Z 21008KT 00/M04 A299 RMK A01 T00021039  RH  074%=      5-min Rain = 0
KFR1 131121Z 21009KT 00/M04 A2991 RMK A01 T00011039  RH  074%=      5-min Rain = 0
KFR1 131122Z 20007KT 00/M04 A2991 RMK A01 T00011039  RH  074%=      5-min Rain = 0
KFR1 131123Z 21007KT 00/M04 A2991 RMK A01 T00011039  RH  074%=      5-min Rain = 0
KFR1 131124Z 21007KT 00/M04 A2991 RMK A01 T00011039  RH  075%=      5-min Rain = 0
KFR1 131125Z 21006KT 00/M04 A299 RMK A01 T00011039  RH  075%=      5-min Rain = 0
KFR1 131126Z 21007KT 00/04 A299 RMK A01 T00000-39  RH  075%=      5-min Rain = 0
KFR1 131127Z 21007KT 00/04 A299 RMK A01 T00-00-39  RH  075%=      5-min Rain = 0
KFR1 131128Z 21006KT M00/M04 A299 RMK A01 T10011039  RH  075%=      5-min Rain = 0
KFR1 131129Z 21007KT M00/M04 A299 RMK A01 T10011039  RH  075%=      5-min Rain = 0
KFR1 131130Z 21007KT M00/M04 A299 RMK A01 T10011039  RH  075%=      5-min Rain = 0
KFR1 131131Z 21007KT 00/04 A299 RMK A01 T00-00-39  RH  075%=      5-min Rain = 0
KFR1 131132Z 21008KT 00/04 A299 RMK A01 T00000-39  RH  075%=      5-min Rain = 0
KFR1 131133Z 21008KT 00/04 A299 RMK A01 T00000-39  RH  075%=      5-min Rain = 0
KFR1 131134Z 21008KT 00/04 A299 RMK A01 T00000-39  RH  075%=      5-min Rain = 0
KFR1 131135Z 21007KT 00/04 A299 RMK A01 T00-00-39  RH  075%=      5-min Rain = 0
KFR1 131136Z 21008KT M00/M04 A299 RMK A01 T10011039  RH  075%=      5-min Rain = 0
KFR1 131137Z 21009KT M00/M04 A299 RMK A01 T10011039  RH  076%=      5-min Rain = 0
KFR1 131138Z 21008KT M00/M04 A299 RMK A01 T10021039  RH  076%=      5-min Rain = 0
KFR1 131139Z 21008KT M00/M04 A299 RMK A01 T10021039  RH  076%=      5-min Rain = 0
KFR1 131140Z 21008KT M00/M04 A299 RMK A01 T10031039  RH  076%=      5-min Rain = 0
KFR1 131141Z 21008KT M00/M04 A299 RMK A01 T10031039  RH  077%=      5-min Rain = 0
KFR1 131142Z 20007KT M00/M04 A299 RMK A01 T10031039  RH  077%=      5-min Rain = 0
KFR1 131143Z 21008KT M00/M04 A299 RMK A01 T10031039  RH  077%=      5-min Rain = 0
KFR1 131144Z 21009KT M00/M04 A299 RMK A01 T10031039  RH  077%=      5-min Rain = 0
KFR1 131145Z 21009KT M00/M04 A299 RMK A01 T10031039  RH  076%=      5-min Rain = 0
KFR1 131146Z 21009KT M00/M04 A299 RMK A01 T10031040  RH  076%=      5-min Rain = 0
KFR1 131147Z 22009KT M00/M04 A299 RMK A01 T10021039  RH  076%=      5-min Rain = 0
KFR1 131148Z 22009KT M00/M04 A299 RMK A01 T10021039  RH  076%=      5-min Rain = 0
KFR1 131149Z 21010KT M00/M04 A299 RMK A01 T10021039  RH  076%=      5-min Rain = 0
KFR1 131150Z 22010KT M00/M04 A299 RMK A01 T10021039  RH  076%=      5-min Rain = 0
KFR1 131151Z 21010KT M00/M04 A299 RMK A01 T10011039  RH  075%=      5-min Rain = 0
KFR1 131152Z 22010KT 00/04 A299 RMK A01 T00000-39  RH  075%=      5-min Rain = 0
KFR1 131153Z 21011KT 00/M04 A2989 RMK A01 T00011039  RH  074%=      5-min Rain = 0
KFR1 131154Z 21011KT 00/M04 A2989 RMK A01 T00031039  RH  073%=      5-min Rain = 0
KFR1 131155Z 21010KT 01/M04 A299 RMK A01 T00051038  RH  073%=      5-min Rain = 0
KFR1 131156Z 21009KT 01/M04 A299 RMK A01 T00051039  RH  072%=      5-min Rain = 0
KFR1 131157Z 21008KT 01/M04 A299 RMK A01 T00051039  RH  072%=      5-min Rain = 0
KFR1 131158Z 21009KT 01/M04 A299 RMK A01 T00051039  RH  072%=      5-min Rain = 0
KFR1 131159Z 21008KT 01/M04 A299 RMK A01 T00051039  RH  072%=      5-min Rain = 0
KFR1 131200Z 21008KT 01/M04 A299 RMK A01 T00051040  RH  072%=      5-min Rain = 0
KFR1 131201Z 21008KT 01/M04 A299 RMK A01 T00051040  RH  072%=      5-min Rain = 0
KFR1 131202Z 21008KT 01/M04 A299 RMK A01 T00051040  RH  072%=      5-min Rain = 0
KFR1 131203Z 21009KT 00/M04 A299 RMK A01 T00041040  RH  072%=      5-min Rain = 0
KFR1 131204Z 21010KT 01/M04 A299 RMK A01 T00051040  RH  072%=      5-min Rain = 0
KFR1 131205Z 21012KT 01/M04 A299 RMK A01 T00051040  RH  072%=      5-min Rain = 0
KFR1 131206Z 21012KT 01/M04 A299 RMK A01 T00051040  RH  072%=      5-min Rain = 0
KFR1 131207Z 21011KT 01/M04 A299 RMK A01 T00051040  RH  072%=      5-min Rain = 0
KFR1 131208Z 22011KT 01/M04 A299 RMK A01 T00061039  RH  072%=      5-min Rain = 0
KFR1 131209Z 22011KT 01/M04 A299 RMK A01 T00071039  RH  071%=      5-min Rain = 0
KFR1 131210Z 21012KT 01/M04 A299 RMK A01 T00081039  RH  071%=      5-min Rain = 0
KFR1 131211Z 21011KT 01/M04 A2989 RMK A01 T00071040  RH  071%=      5-min Rain = 0
KFR1 131212Z 21012KT 01/M04 A2989 RMK A01 T00071040  RH  071%=      5-min Rain = 0
KFR1 131213Z 21011KT 01/M04 A2989 RMK A01 T00071040  RH  071%=      5-min Rain = 0
KFR1 131214Z 21011KT 01/M04 A2989 RMK A01 T00071040  RH  071%=      5-min Rain = 0
KFR1 131215Z 20011KT 01/M04 A2989 RMK A01 T00051040  RH  071%=      5-min Rain = 0
KFR1 131216Z 20011KT 00/M04 A2989 RMK A01 T00031041  RH  072%=      5-min Rain = 0
KFR1 131217Z 20011KT 00/M04 A2989 RMK A01 T00021041  RH  073%=      5-min Rain = 0
KFR1 131218Z 20010KT 00/M04 A2989 RMK A01 T00011040  RH  074%=      5-min Rain = 0
KFR1 131219Z 20009KT 00/04 A2989 RMK A01 T00-00-41  RH  074%=      5-min Rain = 0
KFR1 131220Z 20009KT M00/M04 A2989 RMK A01 T10021041  RH  075%=      5-min Rain = 0
KFR1 131221Z 20008KT M00/M04 A2989 RMK A01 T10031040  RH  076%=      5-min Rain = 0
KFR1 131222Z 20007KT M00/M04 A299 RMK A01 T10031040  RH  076%=      5-min Rain = 0
KFR1 131223Z 20008KT M00/M04 A299 RMK A01 T10031040  RH  076%=      5-min Rain = 0
KFR1 131224Z 19009KT M00/M04 A299 RMK A01 T10031040  RH  076%=      5-min Rain = 0
KFR1 131225Z 20008KT M00/M04 A299 RMK A01 T10031040  RH  076%=      5-min Rain = 0
KFR1 131226Z 20008KT M00/M04 A299 RMK A01 T10031040  RH  076%=      5-min Rain = 0
KFR1 131227Z 20008KT M00/M04 A299 RMK A01 T10031040  RH  076%=      5-min Rain = 0
KFR1 131228Z 20009KT M00/M04 A299 RMK A01 T10031040  RH  076%=      5-min Rain = 0
KFR1 131229Z 21011KT M00/M04 A299 RMK A01 T10031040  RH  076%=      5-min Rain = 0
KFR1 131230Z 21010KT M00/M04 A299 RMK A01 T10021040  RH  076%=      5-min Rain = 0
KFR1 131231Z 21012KT 00/04 A2989 RMK A01 T00-00-39  RH  075%=      5-min Rain = 0
KFR1 131232Z 21013KT 00/M04 A2989 RMK A01 T00031039  RH  073%=      5-min Rain = 0
KFR1 131233Z 22013KT 01/M04 A299 RMK A01 T00051039  RH  072%=      5-min Rain = 0
KFR1 131234Z 21012KT 01/M04 A299 RMK A01 T00061039  RH  072%=      5-min Rain = 0
KFR1 131235Z 22012KT 01/M04 A299 RMK A01 T00071040  RH  071%=      5-min Rain = 0
KFR1 131236Z 21012KT 01/M04 A299 RMK A01 T00081040  RH  070%=      5-min Rain = 0
KFR1 131237Z 22012KT 01/M04 A299 RMK A01 T00081040  RH  070%=      5-min Rain = 0
KFR1 131238Z 22012KT 01/M04 A299 RMK A01 T00101040  RH  069%=      5-min Rain = 0
KFR1 131239Z 21011KT 01/M04 A299 RMK A01 T00101040  RH  069%=      5-min Rain = 0
KFR1 131240Z 21011KT 01/M04 A299 RMK A01 T00101040  RH  069%=      5-min Rain = 0
KFR1 131241Z 21011KT 01/M04 A299 RMK A01 T00101041  RH  069%=      5-min Rain = 0
KFR1 131242Z 21010KT 01/M04 A299 RMK A01 T00101041  RH  069%=      5-min Rain = 0
KFR1 131243Z 21010KT 01/M04 A299 RMK A01 T00101041  RH  069%=      5-min Rain = 0
KFR1 131244Z 21009KT 01/M04 A299 RMK A01 T00091041  RH  069%=      5-min Rain = 0
KFR1 131245Z 22009KT 01/M04 A299 RMK A01 T00081041  RH  070%=      5-min Rain = 0
KFR1 131246Z 21010KT 01/M04 A299 RMK A01 T00081041  RH  070%=      5-min Rain = 0
KFR1 131247Z 21011KT 01/M04 A299 RMK A01 T00091040  RH  070%=      5-min Rain = 0
KFR1 131248Z 21011KT 01/M04 A299 RMK A01 T00091041  RH  069%=      5-min Rain = 0
KFR1 131249Z 21012KT 01/M04 A299 RMK A01 T00101041  RH  069%=      5-min Rain = 0
KFR1 131250Z 21012KT 01/M04 A299 RMK A01 T00101041  RH  069%=      5-min Rain = 0
KFR1 131251Z 21011KT 01/M04 A299 RMK A01 T00101041  RH  069%=      5-min Rain = 0
KFR1 131252Z 21012KT 01/M04 A299 RMK A01 T00091041  RH  069%=      5-min Rain = 0
KFR1 131253Z 21011KT 01/M04 A299 RMK A01 T00081041  RH  070%=      5-min Rain = 0
KFR1 131254Z 21010KT 01/M04 A299 RMK A01 T00071041  RH  070%=      5-min Rain = 0
KFR1 131255Z 20010KT 01/M04 A299 RMK A01 T00051042  RH  071%=      5-min Rain = 0
KFR1 131256Z 20009KT 00/M04 A299 RMK A01 T00031042  RH  072%=      5-min Rain = 0
KFR1 131257Z 20008KT 00/M04 A299 RMK A01 T00011042  RH  073%=      5-min Rain = 0
KFR1 131258Z 20008KT 00/04 A299 RMK A01 T00000-41  RH  073%=      5-min Rain = 0
KFR1 131259Z 20008KT 00/04 A299 RMK A01 T00-00-41  RH  074%=      5-min Rain = 0
KFR1 131300Z 20009KT 00/04 A299 RMK A01 T00-00-41  RH  074%=      5-min Rain = 0
KFR1 131301Z 21008KT 00/04 A299 RMK A01 T00-00-41  RH  074%=      5-min Rain = 0
KFR1 131302Z 21009KT 00/04 A299 RMK A01 T00-00-41  RH  074%=      5-min Rain = 0
KFR1 131303Z 21009KT 00/M04 A299 RMK A01 T00011041  RH  074%=      5-min Rain = 0
KFR1 131304Z 21010KT 00/M04 A299 RMK A01 T00021040  RH  073%=      5-min Rain = 0
KFR1 131305Z 20011KT 00/M04 A299 RMK A01 T00041040  RH  072%=      5-min Rain = 0
KFR1 131306Z 20011KT 01/M04 A299 RMK A01 T00051040  RH  072%=      5-min Rain = 0
KFR1 131307Z 20011KT 00/M04 A299 RMK A01 T00041041  RH  072%=      5-min Rain = 0
KFR1 131308Z 20010KT 00/M04 A299 RMK A01 T00031041  RH  072%=      5-min Rain = 0
KFR1 131309Z 21010KT 00/M04 A299 RMK A01 T00021041  RH  073%=      5-min Rain = 0
KFR1 131310Z 20010KT 00/M04 A299 RMK A01 T00011041  RH  073%=      5-min Rain = 0
KFR1 131311Z 21011KT 00/M04 A299 RMK A01 T00021041  RH  073%=      5-min Rain = 0
KFR1 131312Z 20010KT 00/M04 A299 RMK A01 T00021041  RH  073%=      5-min Rain = 0
KFR1 131313Z 21010KT 00/M04 A299 RMK A01 T00011041  RH  073%=      5-min Rain = 0
KFR1 131314Z 20009KT 00/M04 A299 RMK A01 T00021041  RH  073%=      5-min Rain = 0
KFR1 131315Z 20010KT 00/M04 A299 RMK A01 T00021041  RH  073%=      5-min Rain = 0
KFR1 131316Z 21009KT 00/M04 A299 RMK A01 T00021041  RH  073%=      5-min Rain = 0
KFR1 131317Z 21009KT 00/M04 A299 RMK A01 T00031041  RH  072%=      5-min Rain = 0
KFR1 131318Z 21009KT 01/M04 A2991 RMK A01 T00061040  RH  071%=      5-min Rain = 0
KFR1 131319Z 21009KT 01/M04 A2991 RMK A01 T00081041  RH  070%=      5-min Rain = 0
KFR1 131320Z 21009KT 01/M04 A2991 RMK A01 T00091041  RH  069%=      5-min Rain = 0
KFR1 131321Z 21009KT 01/M04 A2991 RMK A01 T00111041  RH  068%=      5-min Rain = 0
KFR1 131322Z 21009KT 01/M04 A2991 RMK A01 T00111041  RH  068%=      5-min Rain = 0
KFR1 131323Z 21009KT 01/M04 A2991 RMK A01 T00111042  RH  068%=      5-min Rain = 0
KFR1 131324Z 21009KT 01/M04 A2991 RMK A01 T00101042  RH  068%=      5-min Rain = 0
KFR1 131325Z 21009KT 01/M04 A2991 RMK A01 T00111042  RH  068%=      5-min Rain = 0
KFR1 131326Z 21009KT 01/M04 A2991 RMK A01 T00111042  RH  068%=      5-min Rain = 0
KFR1 131327Z 21009KT 01/M04 A2991 RMK A01 T00111042  RH  068%=      5-min Rain = 0
KFR1 131328Z 21008KT 01/M04 A2991 RMK A01 T00111042  RH  068%=      5-min Rain = 0
KFR1 131329Z 21008KT 01/M04 A2991 RMK A01 T00111042  RH  068%=      5-min Rain = 0
KFR1 131330Z 20008KT 01/M04 A2991 RMK A01 T00091043  RH  068%=      5-min Rain = 0
KFR1 131331Z 20009KT 01/M04 A2991 RMK A01 T00061043  RH  070%=      5-min Rain = 0
KFR1 131332Z 20009KT 00/M04 A2991 RMK A01 T00031043  RH  071%=      5-min Rain = 0
KFR1 131333Z 20009KT 00/M04 A2991 RMK A01 T00011043  RH  072%=      5-min Rain = 0
KFR1 131334Z 20009KT 00/M04 A2991 RMK A01 T00011042  RH  073%=      5-min Rain = 0
KFR1 131335Z 20009KT 00/04 A299 RMK A01 T00000-42  RH  073%=      5-min Rain = 0
KFR1 131336Z 20008KT M00/M04 A299 RMK A01 T10011042  RH  073%=      5-min Rain = 0
KFR1 131337Z 19008KT M00/M04 A299 RMK A01 T10011042  RH  074%=      5-min Rain = 0
KFR1 131338Z 19007KT M00/M04 A299 RMK A01 T10011042  RH  074%=      5-min Rain = 0
KFR1 131339Z 19008KT M00/M04 A299 RMK A01 T10011042  RH  074%=      5-min Rain = 0
KFR1 131340Z 19008KT M00/M04 A2991 RMK A01 T10011042  RH  074%=      5-min Rain = 0
KFR1 131341Z 19009KT M00/M04 A2991 RMK A01 T10021042  RH  074%=      5-min Rain = 0
KFR1 131342Z 19008KT M00/M04 A2991 RMK A01 T10021042  RH  074%=      5-min Rain = 0
KFR1 131343Z 20008KT M00/M04 A2991 RMK A01 T10011042  RH  074%=      5-min Rain = 0
KFR1 131344Z 20009KT M00/M04 A2991 RMK A01 T10011042  RH  074%=      5-min Rain = 0
KFR1 131345Z 20008KT M00/M04 A2991 RMK A01 T10021043  RH  074%=      5-min Rain = 0
KFR1 131346Z 21007KT M00/M04 A2991 RMK A01 T10021043  RH  074%=      5-min Rain = 0
KFR1 131347Z 21006KT M00/M04 A2991 RMK A01 T10021043  RH  074%=      5-min Rain = 0
KFR1 131348Z 21007KT M00/M04 A2991 RMK A01 T10021043  RH  074%=      5-min Rain = 0
KFR1 131349Z 21006KT M00/M04 A2991 RMK A01 T10011043  RH  074%=      5-min Rain = 0
KFR1 131350Z 20007KT M00/M04 A2991 RMK A01 T10021044  RH  073%=      5-min Rain = 0
KFR1 131351Z 21008KT M00/M04 A2991 RMK A01 T10021044  RH  074%=      5-min Rain = 0
KFR1 131352Z 21007KT M00/M04 A2991 RMK A01 T10021043  RH  074%=      5-min Rain = 0
KFR1 131353Z 22007KT 00/04 A2991 RMK A01 T00-00-43  RH  073%=      5-min Rain = 0
KFR1 131354Z 21008KT 00/M04 A2991 RMK A01 T00021043  RH  072%=      5-min Rain = 0
KFR1 131355Z 20008KT 00/M04 A2991 RMK A01 T00031043  RH  071%=      5-min Rain = 0
KFR1 131356Z 20009KT 00/M04 A2991 RMK A01 T00021044  RH  071%=      5-min Rain = 0
KFR1 131357Z 20009KT 00/04 A2991 RMK A01 T00000-44  RH  072%=      5-min Rain = 0
KFR1 131358Z 20010KT M00/M04 A2991 RMK A01 T10011044  RH  073%=      5-min Rain = 0
KFR1 131359Z 20009KT M00/M04 A2991 RMK A01 T10011044  RH  073%=      5-min Rain = 0
KFR1 131400Z 20009KT M00/M04 A2991 RMK A01 T10021044  RH  073%=      5-min Rain = 0
KFR1 131401Z 20010KT M00/M04 A2991 RMK A01 T10031044  RH  074%=      5-min Rain = 0
KFR1 131402Z 20009KT M00/M04 A299 RMK A01 T10031044  RH  074%=      5-min Rain = 0
KFR1 131403Z 20010KT M00/M04 A299 RMK A01 T10041044  RH  074%=      5-min Rain = 0
KFR1 131404Z 20010KT M00/M04 A299 RMK A01 T10041044  RH  075%=      5-min Rain = 0
KFR1 131405Z 20010KT M00/M04 A299 RMK A01 T10041043  RH  075%=      5-min Rain = 0
KFR1 131406Z 20009KT M00/M04 A299 RMK A01 T10041043  RH  075%=      5-min Rain = 0
KFR1 131407Z 20008KT M00/M04 A2991 RMK A01 T10041043  RH  075%=      5-min Rain = 0
KFR1 131408Z 20007KT M00/M04 A2991 RMK A01 T10031043  RH  075%=      5-min Rain = 0
KFR1 131409Z 20007KT M00/M04 A2991 RMK A01 T10021043  RH  074%=      5-min Rain = 0
KFR1 131410Z 20006KT M00/M04 A2991 RMK A01 T10011042  RH  074%=      5-min Rain = 0
KFR1 131411Z 21006KT 00/04 A2991 RMK A01 T00-00-42  RH  073%=      5-min Rain = 0
KFR1 131412Z 21006KT 00/04 A2991 RMK A01 T00000-42  RH  073%=      5-min Rain = 0
KFR1 131413Z 21008KT 00/M04 A2991 RMK A01 T00011042  RH  073%=      5-min Rain = 0
KFR1 131414Z 21008KT 00/M04 A2991 RMK A01 T00031041  RH  072%=      5-min Rain = 0
KFR1 131415Z 21006KT 00/M04 A2991 RMK A01 T00041041  RH  072%=      5-min Rain = 0
KFR1 131416Z 21004KT 00/M04 A2992 RMK A01 T00041042  RH  071%=      5-min Rain = 0
KFR1 131417Z 24003KT 01/M04 A2992 RMK A01 T00051042  RH  071%=      5-min Rain = 0
KFR1 131418Z 23005KT 01/M04 A2992 RMK A01 T00061042  RH  070%=      5-min Rain = 0
KFR1 131419Z 22005KT 01/M04 A2991 RMK A01 T00081042  RH  069%=      5-min Rain = 0
KFR1 131420Z 22006KT 01/M04 A2991 RMK A01 T00081042  RH  069%=      5-min Rain = 0
KFR1 131421Z 22008KT 01/M04 A2991 RMK A01 T00091042  RH  069%=      5-min Rain = 0
KFR1 131422Z 21008KT 01/M04 A2992 RMK A01 T00101041  RH  069%=      5-min Rain = 0
KFR1 131423Z 21007KT 01/M04 A2992 RMK A01 T00121041  RH  068%=      5-min Rain = 0
KFR1 131424Z 21007KT 01/M04 A2992 RMK A01 T00131041  RH  067%=      5-min Rain = 0
KFR1 131425Z 21005KT 01/M04 A2992 RMK A01 T00121042  RH  067%=      5-min Rain = 0
KFR1 131426Z 22006KT 01/M04 A2992 RMK A01 T00111042  RH  068%=      5-min Rain = 0
KFR1 131427Z 22007KT 01/M04 A2992 RMK A01 T00101042  RH  068%=      5-min Rain = 0
KFR1 131428Z 23007KT 01/M04 A2992 RMK A01 T00131040  RH  068%=      5-min Rain = 0
KFR1 131429Z 22008KT 02/M04 A2992 RMK A01 T00161039  RH  067%=      5-min Rain = 0
KFR1 131430Z 21007KT 02/M04 A2992 RMK A01 T00181040  RH  065%=      5-min Rain = 0
KFR1 131431Z 21007KT 02/M04 A2992 RMK A01 T00191041  RH  065%=      5-min Rain = 0
KFR1 131432Z 21005KT 02/M04 A2992 RMK A01 T00181040  RH  065%=      5-min Rain = 0
KFR1 131433Z 20006KT 02/M04 A2992 RMK A01 T00161040  RH  066%=      5-min Rain = 0
KFR1 131434Z 21006KT 01/M04 A2992 RMK A01 T00141040  RH  067%=      5-min Rain = 0
KFR1 131435Z 22007KT 01/M04 A2992 RMK A01 T00131039  RH  068%=      5-min Rain = 0
KFR1 131436Z 23008KT 02/M04 A2992 RMK A01 T00151039  RH  068%=      5-min Rain = 0
KFR1 131437Z 22008KT 02/M04 A2992 RMK A01 T00181039  RH  066%=      5-min Rain = 0
KFR1 131438Z 22008KT 02/M04 A2992 RMK A01 T00191040  RH  065%=      5-min Rain = 0
KFR1 131439Z 22008KT 02/M04 A2992 RMK A01 T00181040  RH  066%=      5-min Rain = 0
KFR1 131440Z 22007KT 02/M04 A2992 RMK A01 T00171039  RH  066%=      5-min Rain = 0
KFR1 131441Z 20008KT 02/M04 A2992 RMK A01 T00161038  RH  067%=      5-min Rain = 0
KFR1 131442Z 20009KT 02/M04 A2992 RMK A01 T00161037  RH  068%=      5-min Rain = 0
KFR1 131443Z 20009KT 02/M04 A2992 RMK A01 T00161037  RH  068%=      5-min Rain = 0
KFR1 131444Z 20009KT 02/M04 A2992 RMK A01 T00161036  RH  068%=      5-min Rain = 0
KFR1 131445Z 20008KT 02/M04 A2992 RMK A01 T00171036  RH  068%=      5-min Rain = 0
KFR1 131446Z 20008KT 02/M04 A2992 RMK A01 T00171035  RH  068%=      5-min Rain = 0
KFR1 131447Z 20007KT 02/M04 A2992 RMK A01 T00171035  RH  068%=      5-min Rain = 0
KFR1 131448Z 20007KT 02/M04 A2992 RMK A01 T00171035  RH  068%=      5-min Rain = 0
KFR1 131449Z 20008KT 02/M03 A2992 RMK A01 T00181034  RH  068%=      5-min Rain = 0
KFR1 131450Z 20009KT 02/M03 A2992 RMK A01 T00191034  RH  068%=      5-min Rain = 0
KFR1 131451Z 21008KT 02/M03 A2992 RMK A01 T00191034  RH  068%=      5-min Rain = 0
KFR1 131452Z 21009KT 02/M04 A2992 RMK A01 T00201035  RH  067%=      5-min Rain = 0
KFR1 131453Z 21009KT 02/M04 A2992 RMK A01 T00211035  RH  066%=      5-min Rain = 0
KFR1 131454Z 21009KT 02/M04 A2992 RMK A01 T00221036  RH  066%=      5-min Rain = 0
KFR1 131455Z 21009KT 02/M04 A2992 RMK A01 T00231036  RH  065%=      5-min Rain = 0
KFR1 131456Z 20008KT 03/M04 A2992 RMK A01 T00251037  RH  064%=      5-min Rain = 0
KFR1 131457Z 21007KT 03/M04 A2992 RMK A01 T00251035  RH  064%=      5-min Rain = 0
KFR1 131458Z 21007KT 03/M03 A2992 RMK A01 T00261034  RH  065%=      5-min Rain = 0
KFR1 131459Z 21008KT 03/M03 A2992 RMK A01 T00261033  RH  065%=      5-min Rain = 0
KFR1 131500Z 21008KT 03/M03 A2992 RMK A01 T00271033  RH  065%=      5-min Rain = 0
KFR1 131501Z 21009KT 03/M03 A2992 RMK A01 T00271034  RH  064%=      5-min Rain = 0
KFR1 131502Z 20009KT 03/M03 A2992 RMK A01 T00281034  RH  064%=      5-min Rain = 0
KFR1 131503Z 20008KT 03/M03 A2992 RMK A01 T00291033  RH  064%=      5-min Rain = 0
KFR1 131504Z 21009KT 03/M03 A2992 RMK A01 T00301032  RH  064%=      5-min Rain = 0
KFR1 131505Z 20008KT 03/M03 A2992 RMK A01 T00311033  RH  063%=      5-min Rain = 0
KFR1 131506Z 20008KT 03/M03 A2992 RMK A01 T00321033  RH  062%=      5-min Rain = 0
KFR1 131507Z 20007KT 03/M03 A2993 RMK A01 T00331032  RH  062%=      5-min Rain = 0
KFR1 131508Z 22006KT 03/M03 A2993 RMK A01 T00341032  RH  062%=      5-min Rain = 0
KFR1 131509Z 22006KT 04/M03 A2993 RMK A01 T00361034  RH  060%=      5-min Rain = 0
KFR1 131510Z 22008KT 04/M04 A2993 RMK A01 T00381036  RH  058%=      5-min Rain = 0
KFR1 131511Z 22007KT 04/M04 A2993 RMK A01 T00401037  RH  057%=      5-min Rain = 0
KFR1 131512Z 22007KT 04/M04 A2993 RMK A01 T00421035  RH  057%=      5-min Rain = 0
KFR1 131513Z 22007KT 04/M04 A2993 RMK A01 T00431035  RH  057%=      5-min Rain = 0
KFR1 131514Z 22008KT 04/M03 A2993 RMK A01 T00431033  RH  058%=      5-min Rain = 0
KFR1 131515Z 21006KT 04/M03 A2993 RMK A01 T00431034  RH  057%=      5-min Rain = 0
KFR1 131516Z 21005KT 04/M03 A2993 RMK A01 T00431032  RH  058%=      5-min Rain = 0
KFR1 131517Z 21006KT 04/M03 A2993 RMK A01 T00431031  RH  058%=      5-min Rain = 0
KFR1 131518Z 21004KT 04/M03 A2993 RMK A01 T00441031  RH  058%=      5-min Rain = 0
KFR1 131519Z 20005KT 05/M03 A2993 RMK A01 T00451029  RH  059%=      5-min Rain = 0
KFR1 131520Z 21005KT 05/M03 A2993 RMK A01 T00461028  RH  059%=      5-min Rain = 0
KFR1 131521Z 22005KT 05/M03 A2992 RMK A01 T00461028  RH  059%=      5-min Rain = 0
KFR1 131522Z 22006KT 05/M03 A2992 RMK A01 T00481029  RH  057%=      5-min Rain = 0
KFR1 131523Z 21006KT 05/M03 A2992 RMK A01 T00511032  RH  055%=      5-min Rain = 0
KFR1 131524Z 22007KT 05/M03 A2992 RMK A01 T00521031  RH  055%=      5-min Rain = 0
KFR1 131525Z 22005KT 05/M03 A2993 RMK A01 T00531032  RH  054%=      5-min Rain = 0
KFR1 131526Z 22005KT 05/M03 A2993 RMK A01 T00531032  RH  054%=      5-min Rain = 0
KFR1 131527Z 23005KT 05/M03 A2993 RMK A01 T00541034  RH  053%=      5-min Rain = 0
KFR1 131528Z 21005KT 05/M03 A2993 RMK A01 T00541033  RH  053%=      5-min Rain = 0
KFR1 131529Z 23005KT 06/M03 A2993 RMK A01 T00561031  RH  054%=      5-min Rain = 0
KFR1 131530Z 22005KT 06/M03 A2993 RMK A01 T00571030  RH  054%=      5-min Rain = 0
KFR1 131531Z 22005KT 06/M03 A2993 RMK A01 T00571028  RH  054%=      5-min Rain = 0
KFR1 131532Z 22006KT 06/M03 A2992 RMK A01 T00571029  RH  054%=      5-min Rain = 0
KFR1 131533Z 22005KT 06/M03 A2992 RMK A01 T00571029  RH  054%=      5-min Rain = 0
KFR1 131534Z 22005KT 06/M03 A2992 RMK A01 T00581028  RH  054%=      5-min Rain = 0
KFR1 131535Z 22005KT 06/M03 A2992 RMK A01 T00591030  RH  053%=      5-min Rain = 0
KFR1 131536Z 22005KT 06/M03 A2992 RMK A01 T00591031  RH  052%=      5-min Rain = 0
KFR1 131537Z 23005KT 06/M03 A2992 RMK A01 T00591031  RH  052%=      5-min Rain = 0
KFR1 131538Z 22005KT 06/M03 A2992 RMK A01 T00611030  RH  052%=      5-min Rain = 0
KFR1 131539Z 23006KT 06/M03 A2992 RMK A01 T00621028  RH  053%=      5-min Rain = 0
KFR1 131540Z 24006KT 06/M03 A2992 RMK A01 T00631028  RH  052%=      5-min Rain = 0
KFR1 131541Z 24007KT 06/M03 A2993 RMK A01 T00631027  RH  052%=      5-min Rain = 0
KFR1 131542Z 24005KT 06/M03 A2993 RMK A01 T00641026  RH  052%=      5-min Rain = 0
KFR1 131543Z 24006KT 07/M03 A2993 RMK A01 T00651025  RH  052%=      5-min Rain = 0
KFR1 131544Z 24006KT 07/M02 A2993 RMK A01 T00661024  RH  053%=      5-min Rain = 0
KFR1 131545Z 24005KT 06/M02 A2993 RMK A01 T00641023  RH  054%=      5-min Rain = 0
KFR1 131546Z 23006KT 06/M02 A2992 RMK A01 T00641018  RH  056%=      5-min Rain = 0
KFR1 131547Z 22007KT 06/M02 A2992 RMK A01 T00631022  RH  054%=      5-min Rain = 0
KFR1 131548Z 22006KT 06/M03 A2992 RMK A01 T00641025  RH  053%=      5-min Rain = 0
KFR1 131549Z 22007KT 06/M03 A2992 RMK A01 T00641027  RH  052%=      5-min Rain = 0
KFR1 131550Z 22005KT 07/M03 A2993 RMK A01 T00651027  RH  052%=      5-min Rain = 0
KFR1 131551Z 23006KT 07/M03 A2993 RMK A01 T00651025  RH  052%=      5-min Rain = 0
KFR1 131552Z 23006KT 07/M03 A2993 RMK A01 T00661025  RH  052%=      5-min Rain = 0
KFR1 131553Z 22006KT 07/M03 A2993 RMK A01 T00671026  RH  052%=      5-min Rain = 0
KFR1 131554Z 22006KT 07/M03 A2993 RMK A01 T00681025  RH  052%=      5-min Rain = 0
KFR1 131555Z 23005KT 07/M03 A2993 RMK A01 T00681025  RH  051%=      5-min Rain = 0
KFR1 131556Z 22006KT 07/M03 A2993 RMK A01 T00681026  RH  051%=      5-min Rain = 0
KFR1 131557Z 23006KT 07/M03 A2993 RMK A01 T00691025  RH  051%=      5-min Rain = 0
KFR1 131558Z 23005KT 07/M02 A2993 RMK A01 T00691024  RH  052%=      5-min Rain = 0
KFR1 131559Z 24004KT 07/M02 A2993 RMK A01 T00701022  RH  052%=      5-min Rain = 0
KFR1 131600Z 25005KT 07/M02 A2993 RMK A01 T00721021  RH  052%=      5-min Rain = 0
KFR1 131601Z 27003KT 07/M02 A2993 RMK A01 T00721017  RH  053%=      5-min Rain = 0
KFR1 131602Z 24004KT 07/M01 A2993 RMK A01 T00711012  RH  055%=      5-min Rain = 0
KFR1 131603Z 24005KT 07/M02 A2993 RMK A01 T00701017  RH  054%=      5-min Rain = 0
KFR1 131604Z 25004KT 07/M02 A2993 RMK A01 T00701020  RH  053%=      5-min Rain = 0
KFR1 131605Z 24005KT 07/M02 A2993 RMK A01 T00701018  RH  054%=      5-min Rain = 0
KFR1 131606Z 24005KT 07/M02 A2993 RMK A01 T00701020  RH  053%=      5-min Rain = 0
KFR1 131607Z 23005KT 07/M02 A2993 RMK A01 T00711022  RH  052%=      5-min Rain = 0
KFR1 131608Z 23005KT 07/M02 A2993 RMK A01 T00711022  RH  051%=      5-min Rain = 0
KFR1 131609Z 24005KT 07/M02 A2993 RMK A01 T00721019  RH  052%=      5-min Rain = 0
KFR1 131610Z 25004KT 07/M02 A2993 RMK A01 T00741019  RH  052%=      5-min Rain = 0
KFR1 131611Z 24004KT 08/M02 A2993 RMK A01 T00751017  RH  052%=      5-min Rain = 0
KFR1 131612Z 25004KT 08/M02 A2993 RMK A01 T00771019  RH  051%=      5-min Rain = 0
KFR1 131613Z 24003KT 08/M02 A2993 RMK A01 T00791020  RH  050%=      5-min Rain = 0
KFR1 131614Z 25003KT 08/M02 A2993 RMK A01 T00791016  RH  051%=      5-min Rain = 0
KFR1 131615Z 25002KT 08/M02 A2993 RMK A01 T00771016  RH  051%=      5-min Rain = 0
KFR1 131616Z 25002KT 08/M02 A2993 RMK A01 T00771016  RH  052%=      5-min Rain = 0
KFR1 131617Z 25003KT 08/M02 A2993 RMK A01 T00791016  RH  051%=      5-min Rain = 0
KFR1 131618Z 26003KT 08/M02 A2993 RMK A01 T00791017  RH  051%=      5-min Rain = 0
KFR1 131619Z 26003KT 08/M02 A2993 RMK A01 T00811018  RH  050%=      5-min Rain = 0
KFR1 131620Z 27003KT 08/M02 A2993 RMK A01 T00831020  RH  048%=      5-min Rain = 0
KFR1 131621Z 27002KT 09/M02 A2994 RMK A01 T00851021  RH  047%=      5-min Rain = 0
KFR1 131622Z 24002KT 09/M02 A2994 RMK A01 T00871018  RH  048%=      5-min Rain = 0
KFR1 131623Z 24003KT 09/M02 A2994 RMK A01 T00891016  RH  047%=      5-min Rain = 0
KFR1 131624Z 25003KT 09/M02 A2994 RMK A01 T00901020  RH  046%=      5-min Rain = 0
KFR1 131625Z 25003KT 09/M02 A2994 RMK A01 T00891022  RH  046%=      5-min Rain = 0
KFR1 131626Z 27003KT 09/M02 A2994 RMK A01 T00881020  RH  047%=      5-min Rain = 0
KFR1 131627Z 26002KT 09/M02 A2994 RMK A01 T00881021  RH  046%=      5-min Rain = 0
KFR1 131628Z 28003KT 09/M02 A2994 RMK A01 T00881020  RH  047%=      5-min Rain = 0
KFR1 131629Z 25004KT 09/M02 A2993 RMK A01 T00891020  RH  046%=      5-min Rain = 0
KFR1 131630Z 25004KT 09/M02 A2993 RMK A01 T00891021  RH  046%=      5-min Rain = 0
KFR1 131631Z 27004KT 09/M02 A2993 RMK A01 T00891017  RH  047%=      5-min Rain = 0
KFR1 131632Z 28004KT 09/M02 A2993 RMK A01 T00921019  RH  046%=      5-min Rain = 0
KFR1 131633Z 29003KT 09/M02 A2993 RMK A01 T00941020  RH  045%=      5-min Rain = 0
KFR1 131634Z 33004KT 10/M02 A2994 RMK A01 T00951021  RH  044%=      5-min Rain = 0
KFR1 131635Z 34004KT 10/M02 A2994 RMK A01 T00951021  RH  044%=      5-min Rain = 0
KFR1 131636Z 02002KT 10/M02 A2994 RMK A01 T00951015  RH  046%=      5-min Rain = 0
KFR1 131637Z 02001KT 09/M01 A2994 RMK A01 T00941012  RH  047%=      5-min Rain = 0
KFR1 131638Z 30002KT 09/M01 A2994 RMK A01 T00941014  RH  047%=      5-min Rain = 0
KFR1 131639Z 31002KT 10/M02 A2994 RMK A01 T00951018  RH  045%=      5-min Rain = 0
KFR1 131640Z 35001KT 10/M01 A2994 RMK A01 T00961013  RH  047%=      5-min Rain = 0
KFR1 131641Z 27002KT 10/M02 A2994 RMK A01 T00971017  RH  045%=      5-min Rain = 0
KFR1 131642Z 26002KT 10/M02 A2994 RMK A01 T00981019  RH  044%=      5-min Rain = 0
KFR1 131643Z 28002KT 10/M02 A2994 RMK A01 T00991016  RH  044%=      5-min Rain = 0
KFR1 131644Z 32002KT 10/M02 A2994 RMK A01 T01001016  RH  044%=      5-min Rain = 0
KFR1 131645Z 30002KT 10/M02 A2994 RMK A01 T01001016  RH  044%=      5-min Rain = 0
KFR1 131646Z 25002KT 10/M02 A2993 RMK A01 T00991016  RH  045%=      5-min Rain = 0
KFR1 131647Z 26001KT 10/M02 A2993 RMK A01 T00991018  RH  044%=      5-min Rain = 0
KFR1 131648Z 26001KT 10/M02 A2993 RMK A01 T00981018  RH  044%=      5-min Rain = 0
KFR1 131649Z 26001KT 10/M02 A2993 RMK A01 T00981016  RH  045%=      5-min Rain = 0
KFR1 131650Z 27002KT 10/M02 A2993 RMK A01 T00991017  RH  044%=      5-min Rain = 0
KFR1 131651Z 21001KT 10/M02 A2993 RMK A01 T01001016  RH  044%=      5-min Rain = 0
KFR1 131652Z 24002KT 10/M01 A2993 RMK A01 T01021014  RH  045%=      5-min Rain = 0
KFR1 131653Z 23002KT 10/M02 A2993 RMK A01 T01021015  RH  044%=      5-min Rain = 0
KFR1 131654Z 26002KT 10/M02 A2993 RMK A01 T01021016  RH  044%=      5-min Rain = 0
KFR1 131655Z 30001KT 10/M02 A2993 RMK A01 T01021016  RH  044%=      5-min Rain = 0
KFR1 131656Z 32001KT 10/M02 A2993 RMK A01 T01021017  RH  043%=      5-min Rain = 0
KFR1 131657Z 00000KT 10/M02 A2993 RMK A01 T01021018  RH  043%=      5-min Rain = 0
KFR1 131658Z 31000KT 10/M02 A2993 RMK A01 T01031017  RH  043%=      5-min Rain = 0
KFR1 131659Z 25001KT 11/M01 A2993 RMK A01 T01051014  RH  044%=      5-min Rain = 0
KFR1 131700Z 27001KT 11/M01 A2993 RMK A01 T01071014  RH  043%=      5-min Rain = 0
KFR1 131701Z 24001KT 11/M01 A2993 RMK A01 T01081013  RH  043%=      5-min Rain = 0
KFR1 131702Z 28003KT 11/M02 A2993 RMK A01 T01091015  RH  042%=      5-min Rain = 0
KFR1 131703Z 27000KT 11/M02 A2993 RMK A01 T01101015  RH  042%=      5-min Rain = 0
KFR1 131704Z 30001KT 11/M01 A2993 RMK A01 T01101012  RH  043%=      5-min Rain = 0
KFR1 131705Z 30001KT 11/M01 A2993 RMK A01 T01121013  RH  042%=      5-min Rain = 0
KFR1 131706Z 28001KT 11/M02 A2993 RMK A01 T01121015  RH  041%=      5-min Rain = 0
KFR1 131707Z 32000KT 11/M02 A2993 RMK A01 T01131015  RH  041%=      5-min Rain = 0
KFR1 131708Z 00000KT 11/M02 A2993 RMK A01 T01131016  RH  041%=      5-min Rain = 0
KFR1 131709Z 00000KT 11/M02 A2993 RMK A01 T01141015  RH  041%=      5-min Rain = 0
KFR1 131710Z 02002KT 12/M01 A2993 RMK A01 T01161011  RH  041%=      5-min Rain = 0
KFR1 131711Z 00002KT 12/M01 A2992 RMK A01 T01161011  RH  041%=      5-min Rain = 0
KFR1 131712Z 01001KT 12/M01 A2992 RMK A01 T01151013  RH  041%=      5-min Rain = 0
KFR1 131713Z 34001KT 11/M02 A2992 RMK A01 T01141018  RH  040%=      5-min Rain = 0
KFR1 131714Z 34001KT 11/M02 A2992 RMK A01 T01141018  RH  040%=      5-min Rain = 0
KFR1 131715Z 35001KT 11/M02 A2992 RMK A01 T01141015  RH  041%=      5-min Rain = 0
KFR1 131716Z 34000KT 12/M01 A2992 RMK A01 T01151014  RH  041%=      5-min Rain = 0
KFR1 131717Z 04001KT 12/M02 A2992 RMK A01 T01171015  RH  040%=      5-min Rain = 0
KFR1 131718Z 03002KT 12/M02 A2992 RMK A01 T01181017  RH  039%=      5-min Rain = 0
KFR1 131719Z 04002KT 12/M02 A2992 RMK A01 T01171019  RH  039%=      5-min Rain = 0
KFR1 131720Z 03003KT 12/M02 A2992 RMK A01 T01171018  RH  039%=      5-min Rain = 0
KFR1 131721Z 04002KT 12/M02 A2993 RMK A01 T01171017  RH  039%=      5-min Rain = 0
KFR1 131722Z 03003KT 12/M02 A2993 RMK A01 T01171015  RH  040%=      5-min Rain = 0
KFR1 131723Z 04003KT 12/M02 A2993 RMK A01 T01171015  RH  040%=      5-min Rain = 0
KFR1 131724Z 02003KT 12/M02 A2993 RMK A01 T01181015  RH  040%=      5-min Rain = 0
KFR1 131725Z 01002KT 12/M02 A2993 RMK A01 T01181016  RH  040%=      5-min Rain = 0
KFR1 131726Z 01002KT 12/M01 A2993 RMK A01 T01171014  RH  040%=      5-min Rain = 0
KFR1 131727Z 03002KT 12/M02 A2993 RMK A01 T01181015  RH  040%=      5-min Rain = 0
KFR1 131728Z 03002KT 12/M02 A2993 RMK A01 T01181015  RH  039%=      5-min Rain = 0
KFR1 131729Z 02002KT 12/M02 A2993 RMK A01 T01191016  RH  039%=      5-min Rain = 0
KFR1 131730Z 36001KT 12/M02 A2993 RMK A01 T01191015  RH  040%=      5-min Rain = 0
KFR1 131731Z 00003KT 12/M02 A2993 RMK A01 T01181016  RH  039%=      5-min Rain = 0
KFR1 131732Z 36002KT 12/M02 A2993 RMK A01 T01191020  RH  038%=      5-min Rain = 0
KFR1 131733Z 01002KT 12/M02 A2993 RMK A01 T01181019  RH  038%=      5-min Rain = 0
KFR1 131734Z 02002KT 12/M02 A2993 RMK A01 T01181017  RH  039%=      5-min Rain = 0
KFR1 131735Z 32003KT 12/M02 A2993 RMK A01 T01191018  RH  039%=      5-min Rain = 0
KFR1 131736Z 31002KT 12/M02 A2993 RMK A01 T01191019  RH  038%=      5-min Rain = 0
KFR1 131737Z 34001KT 12/M02 A2992 RMK A01 T01191019  RH  038%=      5-min Rain = 0
KFR1 131738Z 01000KT 12/M02 A2992 RMK A01 T01191019  RH  038%=      5-min Rain = 0
KFR1 131739Z 00000KT 12/M02 A2992 RMK A01 T01201016  RH  039%=      5-min Rain = 0
KFR1 131740Z 05001KT 12/M01 A2992 RMK A01 T01231014  RH  039%=      5-min Rain = 0
KFR1 131741Z 03003KT 13/M02 A2992 RMK A01 T01251016  RH  038%=      5-min Rain = 0
KFR1 131742Z 04002KT 12/M02 A2992 RMK A01 T01241019  RH  037%=      5-min Rain = 0
KFR1 131743Z 04002KT 12/M02 A2992 RMK A01 T01231021  RH  037%=      5-min Rain = 0
KFR1 131744Z 04002KT 12/M02 A2992 RMK A01 T01221019  RH  037%=      5-min Rain = 0
KFR1 131745Z 03002KT 12/M02 A2992 RMK A01 T01231018  RH  038%=      5-min Rain = 0
KFR1 131746Z 05001KT 12/M02 A2992 RMK A01 T01231019  RH  037%=      5-min Rain = 0
KFR1 131747Z 08001KT 12/M02 A2992 RMK A01 T01231020  RH  037%=      5-min Rain = 0
KFR1 131748Z 04002KT 13/M02 A2991 RMK A01 T01251016  RH  037%=      5-min Rain = 0
KFR1 131749Z 04001KT 13/M02 A2991 RMK A01 T01271017  RH  037%=      5-min Rain = 0
KFR1 131750Z 10001KT 13/M02 A2991 RMK A01 T01281018  RH  036%=      5-min Rain = 0
KFR1 131751Z 11002KT 13/M02 A2991 RMK A01 T01281018  RH  036%=      5-min Rain = 0
KFR1 131752Z 10001KT 13/M02 A2991 RMK A01 T01281019  RH  036%=      5-min Rain = 0
KFR1 131753Z 07001KT 13/M02 A2991 RMK A01 T01281020  RH  036%=      5-min Rain = 0
KFR1 131754Z 05002KT 13/M02 A2991 RMK A01 T01291019  RH  036%=      5-min Rain = 0
KFR1 131755Z 04003KT 13/M02 A2991 RMK A01 T01291018  RH  036%=      5-min Rain = 0
KFR1 131756Z 01003KT 13/M02 A2991 RMK A01 T01291020  RH  035%=      5-min Rain = 0
KFR1 131757Z 34002KT 13/M02 A2991 RMK A01 T01281021  RH  036%=      5-min Rain = 0
KFR1 131758Z 01001KT 13/M02 A2991 RMK A01 T01271020  RH  036%=      5-min Rain = 0
KFR1 131759Z 05001KT 13/M02 A2991 RMK A01 T01281018  RH  036%=      5-min Rain = 0
KFR1 131800Z 05002KT 13/M02 A2991 RMK A01 T01291018  RH  036%=      5-min Rain = 0
KFR1 131801Z 28002KT 13/M02 A2991 RMK A01 T01311015  RH  036%=      5-min Rain = 0
KFR1 131802Z 28001KT 13/M02 A2991 RMK A01 T01341018  RH  035%=      5-min Rain = 0
KFR1 131803Z 33002KT 13/M02 A2991 RMK A01 T01341023  RH  034%=      5-min Rain = 0
KFR1 131804Z 01002KT 13/M03 A2991 RMK A01 T01321027  RH  033%=      5-min Rain = 0
KFR1 131805Z 02001KT 13/M03 A2991 RMK A01 T01311027  RH  033%=      5-min Rain = 0
KFR1 131806Z 02001KT 13/M02 A2991 RMK A01 T01341021  RH  034%=      5-min Rain = 0
KFR1 131807Z 01002KT 14/M02 A2991 RMK A01 T01361023  RH  033%=      5-min Rain = 0
KFR1 131808Z 04004KT 14/M02 A299 RMK A01 T01351024  RH  033%=      5-min Rain = 0
KFR1 131809Z 03003KT 13/M03 A299 RMK A01 T01321026  RH  033%=      5-min Rain = 0
KFR1 131810Z 05003KT 13/M03 A299 RMK A01 T01321026  RH  033%=      5-min Rain = 0
KFR1 131811Z 07002KT 13/M03 A299 RMK A01 T01311029  RH  033%=      5-min Rain = 0
KFR1 131812Z 08002KT 13/M03 A299 RMK A01 T01311031  RH  032%=      5-min Rain = 0
KFR1 131813Z 05002KT 13/M03 A299 RMK A01 T01311029  RH  033%=      5-min Rain = 0
KFR1 131814Z 36003KT 13/M03 A299 RMK A01 T01321027  RH  033%=      5-min Rain = 0
KFR1 131815Z 35003KT 13/M03 A299 RMK A01 T01321026  RH  033%=      5-min Rain = 0
KFR1 131816Z 33003KT 13/M02 A299 RMK A01 T01331024  RH  034%=      5-min Rain = 0
KFR1 131817Z 01001KT 13/M03 A299 RMK A01 T01311027  RH  033%=      5-min Rain = 0
KFR1 131818Z 00002KT 13/M02 A299 RMK A01 T01311024  RH  034%=      5-min Rain = 0
KFR1 131819Z 01002KT 13/M03 A299 RMK A01 T01321025  RH  033%=      5-min Rain = 0
KFR1 131820Z 35003KT 13/M03 A299 RMK A01 T01331027  RH  033%=      5-min Rain = 0
KFR1 131821Z 35005KT 13/M03 A299 RMK A01 T01341028  RH  032%=      5-min Rain = 0
KFR1 131822Z 02004KT 13/M03 A299 RMK A01 T01341026  RH  033%=      5-min Rain = 0
KFR1 131823Z 02005KT 14/M02 A299 RMK A01 T01371024  RH  033%=      5-min Rain = 0
KFR1 131824Z 01004KT 14/M03 A299 RMK A01 T01361027  RH  032%=      5-min Rain = 0
KFR1 131825Z 35004KT 14/M03 A299 RMK A01 T01361028  RH  032%=      5-min Rain = 0
KFR1 131826Z 34002KT 14/M03 A299 RMK A01 T01351032  RH  031%=      5-min Rain = 0
KFR1 131827Z 35003KT 14/M03 A299 RMK A01 T01351030  RH  032%=      5-min Rain = 0
KFR1 131828Z 01005KT 14/M03 A299 RMK A01 T01371027  RH  032%=      5-min Rain = 0
KFR1 131829Z 02003KT 14/M03 A2989 RMK A01 T01371031  RH  031%=      5-min Rain = 0
KFR1 131830Z 01003KT 14/M03 A2989 RMK A01 T01371032  RH  031%=      5-min Rain = 0
KFR1 131831Z 00003KT 14/M03 A2989 RMK A01 T01371029  RH  032%=      5-min Rain = 0
KFR1 131832Z 00004KT 14/M03 A2989 RMK A01 T01371030  RH  031%=      5-min Rain = 0
KFR1 131833Z 36004KT 14/M03 A2989 RMK A01 T01361033  RH  031%=      5-min Rain = 0
KFR1 131834Z 36003KT 13/M03 A2989 RMK A01 T01341032  RH  031%=      5-min Rain = 0
KFR1 131835Z 01004KT 14/M03 A2989 RMK A01 T01361029  RH  032%=      5-min Rain = 0
KFR1 131836Z 01005KT 14/M03 A299 RMK A01 T01371030  RH  031%=      5-min Rain = 0
KFR1 131837Z 02004KT 14/M03 A299 RMK A01 T01371031  RH  031%=      5-min Rain = 0
KFR1 131838Z 02004KT 14/M03 A299 RMK A01 T01361029  RH  032%=      5-min Rain = 0
KFR1 131839Z 36005KT 14/M03 A299 RMK A01 T01371029  RH  032%=      5-min Rain = 0
KFR1 131840Z 00005KT 14/M03 A2989 RMK A01 T01371030  RH  031%=      5-min Rain = 0
KFR1 131841Z 01004KT 14/M03 A2989 RMK A01 T01371031  RH  031%=      5-min Rain = 0
KFR1 131842Z 00005KT 14/M03 A2989 RMK A01 T01371030  RH  031%=      5-min Rain = 0
KFR1 131843Z 35006KT 14/M03 A2989 RMK A01 T01371032  RH  031%=      5-min Rain = 0
KFR1 131844Z 36006KT 14/M03 A2989 RMK A01 T01381032  RH  031%=      5-min Rain = 0
KFR1 131845Z 36005KT 14/M03 A2989 RMK A01 T01391033  RH  030%=      5-min Rain = 0
KFR1 131846Z 36005KT 14/M03 A2989 RMK A01 T01381032  RH  031%=      5-min Rain = 0
KFR1 131847Z 36005KT 14/M03 A2989 RMK A01 T01381034  RH  030%=      5-min Rain = 0
KFR1 131848Z 01003KT 14/M03 A2989 RMK A01 T01381032  RH  031%=      5-min Rain = 0
KFR1 131849Z 01003KT 14/M03 A2989 RMK A01 T01391029  RH  031%=      5-min Rain = 0
KFR1 131850Z 02004KT 14/M03 A2989 RMK A01 T01411029  RH  031%=      5-min Rain = 0
KFR1 131851Z 35004KT 14/M03 A2988 RMK A01 T01421031  RH  030%=      5-min Rain = 0
KFR1 131852Z 36004KT 14/M03 A2988 RMK A01 T01421032  RH  030%=      5-min Rain = 0
KFR1 131853Z 36004KT 14/M03 A2988 RMK A01 T01421032  RH  030%=      5-min Rain = 0
KFR1 131854Z 35005KT 14/M03 A2988 RMK A01 T01421032  RH  030%=      5-min Rain = 0
KFR1 131855Z 35005KT 14/M03 A2988 RMK A01 T01421031  RH  030%=      5-min Rain = 0
KFR1 131856Z 35004KT 14/M03 A2988 RMK A01 T01431031  RH  030%=      5-min Rain = 0
KFR1 131857Z 33004KT 15/M03 A2988 RMK A01 T01451028  RH  030%=      5-min Rain = 0
KFR1 131858Z 34004KT 15/M03 A2988 RMK A01 T01461031  RH  029%=      5-min Rain = 0
KFR1 131859Z 34004KT 14/M03 A2988 RMK A01 T01441031  RH  030%=      5-min Rain = 0
KFR1 131900Z 35005KT 14/M03 A2988 RMK A01 T01431030  RH  030%=      5-min Rain = 0
KFR1 131901Z 35006KT 14/M03 A2988 RMK A01 T01441030  RH  030%=      5-min Rain = 0
KFR1 131902Z 34004KT 14/M03 A2988 RMK A01 T01441032  RH  030%=      5-min Rain = 0
KFR1 131903Z 36005KT 15/M03 A2988 RMK A01 T01451028  RH  030%=      5-min Rain = 0
KFR1 131904Z 36006KT 15/M03 A2988 RMK A01 T01461029  RH  030%=      5-min Rain = 0
KFR1 131905Z 34004KT 15/M03 A2988 RMK A01 T01451030  RH  030%=      5-min Rain = 0
KFR1 131906Z 35005KT 14/M03 A2988 RMK A01 T01441028  RH  030%=      5-min Rain = 0
KFR1 131907Z 00005KT 14/M03 A2988 RMK A01 T01431027  RH  031%=      5-min Rain = 0
KFR1 131908Z 36004KT 14/M03 A2988 RMK A01 T01421027  RH  031%=      5-min Rain = 0
KFR1 131909Z 00004KT 14/M03 A2988 RMK A01 T01411027  RH  031%=      5-min Rain = 0
KFR1 131910Z 35004KT 14/M03 A2988 RMK A01 T01411028  RH  031%=      5-min Rain = 0
KFR1 131911Z 35005KT 14/M03 A2988 RMK A01 T01421027  RH  031%=      5-min Rain = 0
KFR1 131912Z 34004KT 15/M03 A2988 RMK A01 T01451025  RH  031%=      5-min Rain = 0
KFR1 131913Z 35003KT 15/M02 A2988 RMK A01 T01491022  RH  031%=      5-min Rain = 0
KFR1 131914Z 01004KT 15/M03 A2988 RMK A01 T01501025  RH  030%=      5-min Rain = 0
KFR1 131915Z 36006KT 15/M03 A2988 RMK A01 T01491025  RH  030%=      5-min Rain = 0
KFR1 131916Z 35006KT 15/M03 A2988 RMK A01 T01481027  RH  030%=      5-min Rain = 0
KFR1 131917Z 36005KT 15/M02 A2988 RMK A01 T01481024  RH  030%=      5-min Rain = 0
KFR1 131918Z 01005KT 15/M02 A2987 RMK A01 T01501020  RH  031%=      5-min Rain = 0
KFR1 131919Z 36005KT 15/M02 A2987 RMK A01 T01491017  RH  032%=      5-min Rain = 0
KFR1 131920Z 00006KT 15/M02 A2987 RMK A01 T01481015  RH  033%=      5-min Rain = 0
KFR1 131921Z 01006KT 15/M02 A2987 RMK A01 T01481018  RH  032%=      5-min Rain = 0
KFR1 131922Z 02007KT 15/M02 A2987 RMK A01 T01481024  RH  030%=      5-min Rain = 0
KFR1 131923Z 02007KT 15/M03 A2987 RMK A01 T01491027  RH  030%=      5-min Rain = 0
KFR1 131924Z 00009KT 15/M03 A2987 RMK A01 T01501026  RH  030%=      5-min Rain = 0
KFR1 131925Z 36009KT 15/M02 A2987 RMK A01 T01491021  RH  031%=      5-min Rain = 0
KFR1 131926Z 35008KT 15/M03 A2987 RMK A01 T01471025  RH  030%=      5-min Rain = 0
KFR1 131927Z 35007KT 15/M03 A2987 RMK A01 T01471028  RH  030%=      5-min Rain = 0
KFR1 131928Z 00007KT 15/M03 A2987 RMK A01 T01481026  RH  030%=      5-min Rain = 0
KFR1 131929Z 01006KT 15/M02 A2987 RMK A01 T01491024  RH  030%=      5-min Rain = 0
KFR1 131930Z 00005KT 15/M03 A2987 RMK A01 T01501025  RH  030%=      5-min Rain = 0
KFR1 131931Z 00006KT 15/M03 A2987 RMK A01 T01501027  RH  029%=      5-min Rain = 0
KFR1 131932Z 36008KT 15/M02 A2987 RMK A01 T01501023  RH  030%=      5-min Rain = 0
KFR1 131933Z 35006KT 15/M02 A2987 RMK A01 T01471020  RH  031%=      5-min Rain = 0
KFR1 131934Z 35007KT 15/M02 A2987 RMK A01 T01461017  RH  032%=      5-min Rain = 0
KFR1 131935Z 36006KT 15/M02 A2987 RMK A01 T01461018  RH  032%=      5-min Rain = 0
KFR1 131936Z 35006KT 15/M02 A2987 RMK A01 T01471022  RH  031%=      5-min Rain = 0
KFR1 131937Z 01005KT 15/M02 A2987 RMK A01 T01501023  RH  030%=      5-min Rain = 0
KFR1 131938Z 01006KT 15/M03 A2987 RMK A01 T01511025  RH  030%=      5-min Rain = 0
KFR1 131939Z 36007KT 15/M03 A2987 RMK A01 T01511026  RH  029%=      5-min Rain = 0
KFR1 131940Z 00005KT 15/M03 A2987 RMK A01 T01501028  RH  029%=      5-min Rain = 0
KFR1 131941Z 00007KT 15/M03 A2987 RMK A01 T01501026  RH  030%=      5-min Rain = 0
KFR1 131942Z 01008KT 15/M03 A2987 RMK A01 T01501029  RH  029%=      5-min Rain = 0
KFR1 131943Z 01006KT 15/M03 A2987 RMK A01 T01511028  RH  029%=      5-min Rain = 0
KFR1 131944Z 36008KT 15/M03 A2987 RMK A01 T01521029  RH  029%=      5-min Rain = 0
KFR1 131945Z 36008KT 15/M03 A2987 RMK A01 T01521027  RH  029%=      5-min Rain = 0
KFR1 131946Z 34006KT 15/M03 A2987 RMK A01 T01501025  RH  030%=      5-min Rain = 0
KFR1 131947Z 34005KT 15/M03 A2987 RMK A01 T01501026  RH  030%=      5-min Rain = 0
KFR1 131948Z 36006KT 15/M02 A2987 RMK A01 T01511024  RH  030%=      5-min Rain = 0
KFR1 131949Z 01006KT 15/M02 A2987 RMK A01 T01521024  RH  030%=      5-min Rain = 0
KFR1 131950Z 02006KT 15/M03 A2987 RMK A01 T01531026  RH  029%=      5-min Rain = 0
KFR1 131951Z 04006KT 15/M03 A2987 RMK A01 T01521026  RH  029%=      5-min Rain = 0
KFR1 131952Z 01006KT 15/M03 A2987 RMK A01 T01521026  RH  029%=      5-min Rain = 0
KFR1 131953Z 01007KT 15/M03 A2987 RMK A01 T01521025  RH  029%=      5-min Rain = 0
KFR1 131954Z 01007KT 15/M03 A2987 RMK A01 T01521029  RH  029%=      5-min Rain = 0
KFR1 131955Z 00007KT 15/M03 A2987 RMK A01 T01511030  RH  029%=      5-min Rain = 0
KFR1 131956Z 01007KT 15/M03 A2987 RMK A01 T01511032  RH  028%=      5-min Rain = 0
KFR1 131957Z 02007KT 15/M03 A2987 RMK A01 T01511029  RH  029%=      5-min Rain = 0
KFR1 131958Z 02006KT 15/M03 A2987 RMK A01 T01511027  RH  029%=      5-min Rain = 0
KFR1 131959Z 02007KT 15/M03 A2987 RMK A01 T01521026  RH  029%=      5-min Rain = 0
KFR1 132000Z 02007KT 15/M03 A2987 RMK A01 T01521027  RH  029%=      5-min Rain = 0
KFR1 132001Z 02009KT 15/M03 A2987 RMK A01 T01511027  RH  029%=      5-min Rain = 0
KFR1 132002Z 02007KT 15/M03 A2987 RMK A01 T01511028  RH  029%=      5-min Rain = 0
KFR1 132003Z 02006KT 15/M03 A2987 RMK A01 T01511027  RH  029%=      5-min Rain = 0
KFR1 132004Z 02007KT 15/M02 A2987 RMK A01 T01521024  RH  030%=      5-min Rain = 0
KFR1 132005Z 03007KT 15/M03 A2986 RMK A01 T01521025  RH  029%=      5-min Rain = 0
KFR1 132006Z 03007KT 15/M03 A2986 RMK A01 T01521026  RH  029%=      5-min Rain = 0
KFR1 132007Z 01004KT 15/M03 A2986 RMK A01 T01521027  RH  029%=      5-min Rain = 0
KFR1 132008Z 01006KT 15/M02 A2986 RMK A01 T01531024  RH  029%=      5-min Rain = 0
KFR1 132009Z 01007KT 15/M03 A2986 RMK A01 T01531027  RH  029%=      5-min Rain = 0
KFR1 132010Z 01005KT 15/M03 A2986 RMK A01 T01521027  RH  029%=      5-min Rain = 0
KFR1 132011Z 01007KT 15/M03 A2986 RMK A01 T01521026  RH  029%=      5-min Rain = 0
KFR1 132012Z 02007KT 15/M03 A2986 RMK A01 T01521025  RH  029%=      5-min Rain = 0
KFR1 132013Z 02007KT 15/M03 A2986 RMK A01 T01531026  RH  029%=      5-min Rain = 0
KFR1 132014Z 36007KT 15/M03 A2986 RMK A01 T01521028  RH  029%=      5-min Rain = 0
KFR1 132015Z 36007KT 15/M03 A2986 RMK A01 T01511027  RH  029%=      5-min Rain = 0
KFR1 132016Z 02007KT 15/M03 A2986 RMK A01 T01511027  RH  029%=      5-min Rain = 0
KFR1 132017Z 01007KT 15/M03 A2986 RMK A01 T01511026  RH  030%=      5-min Rain = 0
KFR1 132018Z 01005KT 15/M03 A2986 RMK A01 T01511027  RH  029%=      5-min Rain = 0
KFR1 132019Z 03004KT 15/M03 A2986 RMK A01 T01511025  RH  029%=      5-min Rain = 0
KFR1 132020Z 02006KT 15/M03 A2986 RMK A01 T01531025  RH  029%=      5-min Rain = 0
KFR1 132021Z 02006KT 15/M03 A2986 RMK A01 T01531026  RH  029%=      5-min Rain = 0
KFR1 132022Z 02008KT 15/M03 A2986 RMK A01 T01521026  RH  029%=      5-min Rain = 0
KFR1 132023Z 02007KT 15/M03 A2986 RMK A01 T01521027  RH  029%=      5-min Rain = 0
KFR1 132024Z 02006KT 15/M03 A2986 RMK A01 T01521026  RH  029%=      5-min Rain = 0
KFR1 132025Z 02005KT 15/M03 A2986 RMK A01 T01521026  RH  029%=      5-min Rain = 0
KFR1 132026Z 03006KT 15/M02 A2986 RMK A01 T01531024  RH  029%=      5-min Rain = 0
KFR1 132027Z 02007KT 15/M03 A2986 RMK A01 T01541026  RH  029%=      5-min Rain = 0
KFR1 132028Z 02008KT 15/M03 A2986 RMK A01 T01531028  RH  029%=      5-min Rain = 0
KFR1 132029Z 03006KT 15/M03 A2986 RMK A01 T01521028  RH  029%=      5-min Rain = 0
KFR1 132030Z 03004KT 15/M03 A2986 RMK A01 T01521026  RH  029%=      5-min Rain = 0
KFR1 132031Z 03005KT 15/M02 A2986 RMK A01 T01541024  RH  029%=      5-min Rain = 0
KFR1 132032Z 04007KT 16/M03 A2986 RMK A01 T01551025  RH  029%=      5-min Rain = 0
KFR1 132033Z 04007KT 16/M03 A2986 RMK A01 T01551026  RH  029%=      5-min Rain = 0
KFR1 132034Z 03005KT 16/M03 A2985 RMK A01 T01551025  RH  029%=      5-min Rain = 0
KFR1 132035Z 01004KT 16/M03 A2985 RMK A01 T01551025  RH  029%=      5-min Rain = 0
KFR1 132036Z 01007KT 16/M03 A2985 RMK A01 T01551025  RH  029%=      5-min Rain = 0
KFR1 132037Z 01007KT 15/M03 A2985 RMK A01 T01531028  RH  029%=      5-min Rain = 0
KFR1 132038Z 02005KT 15/M03 A2985 RMK A01 T01521028  RH  029%=      5-min Rain = 0
KFR1 132039Z 36005KT 15/M03 A2986 RMK A01 T01521026  RH  029%=      5-min Rain = 0
KFR1 132040Z 02005KT 15/M03 A2986 RMK A01 T01521025  RH  029%=      5-min Rain = 0
KFR1 132041Z 02007KT 15/M03 A2985 RMK A01 T01531025  RH  029%=      5-min Rain = 0
KFR1 132042Z 02006KT 15/M03 A2985 RMK A01 T01521026  RH  029%=      5-min Rain = 0
KFR1 132043Z 01006KT 15/M03 A2985 RMK A01 T01521025  RH  029%=      5-min Rain = 0
KFR1 132044Z 01005KT 15/M03 A2985 RMK A01 T01511026  RH  029%=      5-min Rain = 0
KFR1 132045Z 02005KT 15/M03 A2985 RMK A01 T01511026  RH  029%=      5-min Rain = 0
KFR1 132046Z 01005KT 15/M03 A2985 RMK A01 T01521025  RH  029%=      5-min Rain = 0
KFR1 132047Z 00005KT 15/M03 A2985 RMK A01 T01521027  RH  029%=      5-min Rain = 0
KFR1 132048Z 01008KT 15/M03 A2986 RMK A01 T01521026  RH  029%=      5-min Rain = 0
KFR1 132049Z 01007KT 15/M03 A2986 RMK A01 T01521025  RH  029%=      5-min Rain = 0
KFR1 132050Z 01008KT 15/M03 A2985 RMK A01 T01521025  RH  029%=      5-min Rain = 0
KFR1 132051Z 02005KT 15/M03 A2985 RMK A01 T01521027  RH  029%=      5-min Rain = 0
KFR1 132052Z 02005KT 15/M03 A2985 RMK A01 T01521026  RH  029%=      5-min Rain = 0
KFR1 132053Z 02006KT 15/M03 A2985 RMK A01 T01531025  RH  029%=      5-min Rain = 0
KFR1 132054Z 04007KT 15/M03 A2985 RMK A01 T01531026  RH  029%=      5-min Rain = 0
KFR1 132055Z 02005KT 15/M03 A2985 RMK A01 T01521028  RH  029%=      5-min Rain = 0
KFR1 132056Z 02006KT 15/M03 A2985 RMK A01 T01511026  RH  029%=      5-min Rain = 0
KFR1 132057Z 02007KT 15/M03 A2985 RMK A01 T01521025  RH  029%=      5-min Rain = 0
KFR1 132058Z 02006KT 15/M03 A2985 RMK A01 T01511028  RH  029%=      5-min Rain = 0
KFR1 132059Z 04005KT 15/M03 A2985 RMK A01 T01511027  RH  029%=      5-min Rain = 0
KFR1 132100Z 04004KT 15/M03 A2985 RMK A01 T01511026  RH  029%=      5-min Rain = 0
KFR1 132101Z 03006KT 15/M03 A2985 RMK A01 T01531025  RH  029%=      5-min Rain = 0
KFR1 132102Z 04005KT 15/M03 A2985 RMK A01 T01531028  RH  028%=      5-min Rain = 0
KFR1 132103Z 04007KT 15/M03 A2985 RMK A01 T01521028  RH  029%=      5-min Rain = 0
KFR1 132104Z 04006KT 15/M03 A2985 RMK A01 T01511028  RH  029%=      5-min Rain = 0
KFR1 132105Z 05006KT 15/M03 A2985 RMK A01 T01511028  RH  029%=      5-min Rain = 0
KFR1 132106Z 06005KT 15/M03 A2985 RMK A01 T01511029  RH  029%=      5-min Rain = 0
KFR1 132107Z 04006KT 15/M03 A2985 RMK A01 T01511029  RH  029%=      5-min Rain = 0
KFR1 132108Z 03008KT 15/M03 A2985 RMK A01 T01511028  RH  029%=      5-min Rain = 0
KFR1 132109Z 04007KT 15/M03 A2985 RMK A01 T01511029  RH  029%=      5-min Rain = 0
KFR1 132110Z 04006KT 15/M03 A2985 RMK A01 T01511029  RH  029%=      5-min Rain = 0
KFR1 132111Z 04007KT 15/M03 A2985 RMK A01 T01501029  RH  029%=      5-min Rain = 0
KFR1 132112Z 04009KT 15/M03 A2985 RMK A01 T01501030  RH  029%=      5-min Rain = 0
KFR1 132113Z 04008KT 15/M03 A2985 RMK A01 T01501030  RH  029%=      5-min Rain = 0
KFR1 132114Z 03008KT 15/M03 A2985 RMK A01 T01501030  RH  029%=      5-min Rain = 0
KFR1 132115Z 04007KT 15/M03 A2985 RMK A01 T01501031  RH  029%=      5-min Rain = 0
KFR1 132116Z 04006KT 15/M03 A2985 RMK A01 T01491031  RH  029%=      5-min Rain = 0
KFR1 132117Z 04008KT 15/M03 A2985 RMK A01 T01491029  RH  029%=      5-min Rain = 0
KFR1 132118Z 03006KT 15/M03 A2985 RMK A01 T01501029  RH  029%=      5-min Rain = 0
KFR1 132119Z 04005KT 15/M03 A2985 RMK A01 T01511028  RH  029%=      5-min Rain = 0
KFR1 132120Z 04006KT 15/M03 A2985 RMK A01 T01511028  RH  029%=      5-min Rain = 0
KFR1 132121Z 04006KT 15/M03 A2985 RMK A01 T01511028  RH  029%=      5-min Rain = 0
KFR1 132122Z 03007KT 15/M03 A2985 RMK A01 T01511029  RH  029%=      5-min Rain = 0
KFR1 132123Z 04006KT 15/M03 A2985 RMK A01 T01511029  RH  029%=      5-min Rain = 0
KFR1 132124Z 04003KT 15/M03 A2985 RMK A01 T01511028  RH  029%=      5-min Rain = 0
KFR1 132125Z 03005KT 15/M03 A2985 RMK A01 T01511029  RH  029%=      5-min Rain = 0
KFR1 132126Z 03006KT 15/M03 A2985 RMK A01 T01511028  RH  029%=      5-min Rain = 0
KFR1 132127Z 05005KT 15/M03 A2985 RMK A01 T01521028  RH  029%=      5-min Rain = 0
KFR1 132128Z 04006KT 15/M03 A2985 RMK A01 T01531029  RH  029%=      5-min Rain = 0
KFR1 132129Z 04005KT 15/M03 A2985 RMK A01 T01521028  RH  029%=      5-min Rain = 0
KFR1 132130Z 04004KT 15/M03 A2985 RMK A01 T01521028  RH  029%=      5-min Rain = 0
KFR1 132131Z 03003KT 15/M03 A2985 RMK A01 T01521027  RH  029%=      5-min Rain = 0
KFR1 132132Z 05004KT 15/M03 A2985 RMK A01 T01531027  RH  029%=      5-min Rain = 0
KFR1 132133Z 04003KT 15/M03 A2985 RMK A01 T01531028  RH  029%=      5-min Rain = 0
KFR1 132134Z 03003KT 15/M03 A2985 RMK A01 T01531028  RH  029%=      5-min Rain = 0
KFR1 132135Z 01005KT 15/M03 A2985 RMK A01 T01531028  RH  029%=      5-min Rain = 0
KFR1 132136Z 00004KT 15/M03 A2985 RMK A01 T01521030  RH  029%=      5-min Rain = 0
KFR1 132137Z 03003KT 15/M03 A2985 RMK A01 T01511029  RH  029%=      5-min Rain = 0
KFR1 132138Z 01004KT 15/M03 A2985 RMK A01 T01511028  RH  029%=      5-min Rain = 0
KFR1 132139Z 01003KT 15/M03 A2985 RMK A01 T01511029  RH  029%=      5-min Rain = 0
KFR1 132140Z 01005KT 15/M03 A2985 RMK A01 T01511028  RH  029%=      5-min Rain = 0
KFR1 132141Z 02005KT 15/M03 A2985 RMK A01 T01511029  RH  029%=      5-min Rain = 0
KFR1 132142Z 02005KT 15/M03 A2985 RMK A01 T01511029  RH  029%=      5-min Rain = 0
KFR1 132143Z 02004KT 15/M03 A2985 RMK A01 T01511029  RH  029%=      5-min Rain = 0
KFR1 132144Z 02005KT 15/M03 A2985 RMK A01 T01511029  RH  029%=      5-min Rain = 0
KFR1 132145Z 03005KT 15/M03 A2985 RMK A01 T01501029  RH  029%=      5-min Rain = 0
KFR1 132146Z 01005KT 15/M03 A2986 RMK A01 T01501029  RH  029%=      5-min Rain = 0
KFR1 132147Z 01005KT 15/M03 A2986 RMK A01 T01501030  RH  029%=      5-min Rain = 0
KFR1 132148Z 02004KT 15/M03 A2986 RMK A01 T01501030  RH  029%=      5-min Rain = 0
KFR1 132149Z 02004KT 15/M03 A2986 RMK A01 T01511030  RH  029%=      5-min Rain = 0
KFR1 132150Z 01004KT 15/M03 A2986 RMK A01 T01501030  RH  029%=      5-min Rain = 0
KFR1 132151Z 00004KT 15/M03 A2986 RMK A01 T01511030  RH  029%=      5-min Rain = 0
KFR1 132152Z 02004KT 15/M03 A2986 RMK A01 T01511031  RH  028%=      5-min Rain = 0
KFR1 132153Z 04002KT 15/M03 A2986 RMK A01 T01511030  RH  029%=      5-min Rain = 0
KFR1 132154Z 04003KT 15/M03 A2986 RMK A01 T01511029  RH  029%=      5-min Rain = 0
KFR1 132155Z 04004KT 15/M03 A2986 RMK A01 T01511030  RH  029%=      5-min Rain = 0
KFR1 132156Z 04004KT 15/M03 A2986 RMK A01 T01511031  RH  029%=      5-min Rain = 0
KFR1 132157Z 04004KT 15/M03 A2986 RMK A01 T01501030  RH  029%=      5-min Rain = 0
KFR1 132158Z 04005KT 15/M03 A2986 RMK A01 T01511031  RH  028%=      5-min Rain = 0
KFR1 132159Z 04005KT 15/M03 A2986 RMK A01 T01501032  RH  028%=      5-min Rain = 0
KFR1 132200Z 04005KT 15/M03 A2986 RMK A01 T01501032  RH  028%=      5-min Rain = 0
KFR1 132201Z 03005KT 15/M03 A2986 RMK A01 T01501031  RH  029%=      5-min Rain = 0
KFR1 132202Z 04005KT 15/M03 A2986 RMK A01 T01501031  RH  029%=      5-min Rain = 0
KFR1 132203Z 04004KT 15/M03 A2986 RMK A01 T01501031  RH  029%=      5-min Rain = 0
KFR1 132204Z 04005KT 15/M03 A2986 RMK A01 T01491031  RH  029%=      5-min Rain = 0
KFR1 132205Z 04007KT 15/M03 A2985 RMK A01 T01491030  RH  029%=      5-min Rain = 0
KFR1 132206Z 04007KT 15/M03 A2985 RMK A01 T01481030  RH  029%=      5-min Rain = 0
KFR1 132207Z 04006KT 15/M03 A2985 RMK A01 T01481031  RH  029%=      5-min Rain = 0
KFR1 132208Z 05005KT 15/M03 A2985 RMK A01 T01481030  RH  029%=      5-min Rain = 0
KFR1 132209Z 05005KT 15/M03 A2985 RMK A01 T01481030  RH  029%=      5-min Rain = 0
KFR1 132210Z 05005KT 15/M03 A2986 RMK A01 T01481030  RH  029%=      5-min Rain = 0
KFR1 132211Z 05006KT 15/M03 A2986 RMK A01 T01481030  RH  029%=      5-min Rain = 0
KFR1 132212Z 05005KT 15/M03 A2986 RMK A01 T01481030  RH  029%=      5-min Rain = 0
KFR1 132213Z 05004KT 15/M03 A2986 RMK A01 T01491029  RH  029%=      5-min Rain = 0
KFR1 132214Z 05004KT 15/M03 A2986 RMK A01 T01481030  RH  029%=      5-min Rain = 0
KFR1 132215Z 06003KT 15/M03 A2986 RMK A01 T01481031  RH  029%=      5-min Rain = 0
KFR1 132216Z 05005KT 15/M03 A2986 RMK A01 T01481031  RH  029%=      5-min Rain = 0
KFR1 132217Z 04005KT 15/M03 A2987 RMK A01 T01481031  RH  029%=      5-min Rain = 0
KFR1 132218Z 04005KT 15/M03 A2987 RMK A01 T01481030  RH  029%=      5-min Rain = 0
KFR1 132219Z 04006KT 15/M03 A2987 RMK A01 T01481030  RH  029%=      5-min Rain = 0
KFR1 132220Z 04005KT 15/M03 A2987 RMK A01 T01471031  RH  029%=      5-min Rain = 0
KFR1 132221Z 05006KT 15/M03 A2987 RMK A01 T01471031  RH  029%=      5-min Rain = 0
KFR1 132222Z 05005KT 15/M03 A2987 RMK A01 T01481029  RH  029%=      5-min Rain = 0
KFR1 132223Z 04006KT 15/M03 A2987 RMK A01 T01471030  RH  029%=      5-min Rain = 0
KFR1 132224Z 04006KT 15/M03 A2987 RMK A01 T01471030  RH  029%=      5-min Rain = 0
KFR1 132225Z 04006KT 15/M03 A2987 RMK A01 T01461031  RH  029%=      5-min Rain = 0
KFR1 132226Z 05005KT 15/M03 A2987 RMK A01 T01461031  RH  029%=      5-min Rain = 0
KFR1 132227Z 04005KT 15/M03 A2987 RMK A01 T01461032  RH  029%=      5-min Rain = 0
KFR1 132228Z 05005KT 15/M03 A2987 RMK A01 T01461032  RH  029%=      5-min Rain = 0
KFR1 132229Z 04004KT 15/M03 A2987 RMK A01 T01461032  RH  029%=      5-min Rain = 0
KFR1 132230Z 04004KT 15/M03 A2987 RMK A01 T01461032  RH  029%=      5-min Rain = 0
KFR1 132231Z 04003KT 15/M03 A2987 RMK A01 T01461032  RH  029%=      5-min Rain = 0
KFR1 132232Z 04001KT 15/M03 A2987 RMK A01 T01471032  RH  029%=      5-min Rain = 0
KFR1 132233Z 03001KT 15/M03 A2987 RMK A01 T01471032  RH  029%=      5-min Rain = 0
KFR1 132234Z 03001KT 15/M03 A2987 RMK A01 T01471032  RH  029%=      5-min Rain = 0
KFR1 132235Z 05001KT 15/M03 A2987 RMK A01 T01481031  RH  029%=      5-min Rain = 0
KFR1 132236Z 06002KT 15/M03 A2987 RMK A01 T01481032  RH  029%=      5-min Rain = 0
KFR1 132237Z 06001KT 15/M03 A2987 RMK A01 T01471033  RH  029%=      5-min Rain = 0
KFR1 132238Z 06002KT 15/M03 A2987 RMK A01 T01481032  RH  029%=      5-min Rain = 0
KFR1 132239Z 04004KT 15/M03 A2987 RMK A01 T01471032  RH  029%=      5-min Rain = 0
KFR1 132240Z 04004KT 15/M03 A2987 RMK A01 T01471032  RH  029%=      5-min Rain = 0
KFR1 132241Z 04004KT 15/M03 A2987 RMK A01 T01461033  RH  029%=      5-min Rain = 0
KFR1 132242Z 04004KT 15/M03 A2986 RMK A01 T01451033  RH  029%=      5-min Rain = 0
KFR1 132243Z 05004KT 14/M03 A2986 RMK A01 T01441034  RH  029%=      5-min Rain = 0
KFR1 132244Z 06003KT 14/M03 A2986 RMK A01 T01441034  RH  029%=      5-min Rain = 0
KFR1 132245Z 06005KT 14/M03 A2986 RMK A01 T01441034  RH  029%=      5-min Rain = 0
KFR1 132246Z 06005KT 15/M03 A2986 RMK A01 T01451034  RH  029%=      5-min Rain = 0
KFR1 132247Z 07005KT 15/M03 A2986 RMK A01 T01451034  RH  029%=      5-min Rain = 0
KFR1 132248Z 06005KT 15/M03 A2986 RMK A01 T01451033  RH  029%=      5-min Rain = 0
KFR1 132249Z 06005KT 15/M03 A2986 RMK A01 T01451034  RH  029%=      5-min Rain = 0
KFR1 132250Z 07005KT 15/M03 A2986 RMK A01 T01451034  RH  029%=      5-min Rain = 0
KFR1 132251Z 07004KT 15/M03 A2986 RMK A01 T01451034  RH  029%=      5-min Rain = 0
KFR1 132252Z 07003KT 14/M03 A2986 RMK A01 T01441033  RH  029%=      5-min Rain = 0
KFR1 132253Z 08003KT 14/M03 A2986 RMK A01 T01431033  RH  029%=      5-min Rain = 0
KFR1 132254Z 08004KT 14/M03 A2986 RMK A01 T01421034  RH  029%=      5-min Rain = 0
KFR1 132255Z 07004KT 14/M03 A2986 RMK A01 T01421033  RH  030%=      5-min Rain = 0
KFR1 132256Z 07003KT 14/M03 A2986 RMK A01 T01411033  RH  030%=      5-min Rain = 0
KFR1 132257Z 07003KT 14/M03 A2986 RMK A01 T01411033  RH  030%=      5-min Rain = 0
KFR1 132258Z 08003KT 14/M03 A2986 RMK A01 T01411033  RH  030%=      5-min Rain = 0
KFR1 132259Z 09003KT 14/M03 A2986 RMK A01 T01421033  RH  030%=      5-min Rain = 0
KFR1 132300Z 08003KT 14/M03 A2986 RMK A01 T01411033  RH  030%=      5-min Rain = 0
KFR1 132301Z 07003KT 14/M03 A2986 RMK A01 T01411033  RH  030%=      5-min Rain = 0
KFR1 132302Z 07003KT 14/M03 A2986 RMK A01 T01411033  RH  030%=      5-min Rain = 0
KFR1 132303Z 06003KT 14/M03 A2986 RMK A01 T01421032  RH  030%=      5-min Rain = 0
KFR1 132304Z 05003KT 14/M03 A2986 RMK A01 T01421032  RH  030%=      5-min Rain = 0
KFR1 132305Z 05003KT 14/M03 A2986 RMK A01 T01431032  RH  030%=      5-min Rain = 0
KFR1 132306Z 05003KT 14/M03 A2986 RMK A01 T01431032  RH  030%=      5-min Rain = 0
KFR1 132307Z 05003KT 14/M03 A2987 RMK A01 T01421032  RH  030%=      5-min Rain = 0
KFR1 132308Z 04003KT 14/M03 A2987 RMK A01 T01411033  RH  030%=      5-min Rain = 0
KFR1 132309Z 04003KT 14/M03 A2987 RMK A01 T01411032  RH  030%=      5-min Rain = 0
KFR1 132310Z 04003KT 14/M03 A2987 RMK A01 T01401032  RH  030%=      5-min Rain = 0
KFR1 132311Z 04003KT 14/M03 A2987 RMK A01 T01401032  RH  030%=      5-min Rain = 0
KFR1 132312Z 04003KT 14/M03 A2987 RMK A01 T01391032  RH  030%=      5-min Rain = 0
KFR1 132313Z 05003KT 14/M03 A2987 RMK A01 T01391032  RH  030%=      5-min Rain = 0
KFR1 132314Z 05003KT 14/M03 A2987 RMK A01 T01391032  RH  030%=      5-min Rain = 0
KFR1 132315Z 05003KT 14/M03 A2987 RMK A01 T01401031  RH  030%=      5-min Rain = 0
KFR1 132316Z 05004KT 14/M03 A2987 RMK A01 T01401031  RH  030%=      5-min Rain = 0
KFR1 132317Z 05004KT 14/M03 A2988 RMK A01 T01401031  RH  030%=      5-min Rain = 0
KFR1 132318Z 05004KT 14/M03 A2988 RMK A01 T01411031  RH  030%=      5-min Rain = 0
KFR1 132319Z 05003KT 14/M03 A2988 RMK A01 T01401031  RH  030%=      5-min Rain = 0
KFR1 132320Z 06004KT 14/M03 A2988 RMK A01 T01401031  RH  030%=      5-min Rain = 0
KFR1 132321Z 06003KT 14/M03 A2988 RMK A01 T01391031  RH  031%=      5-min Rain = 0
KFR1 132322Z 06003KT 14/M03 A2988 RMK A01 T01391031  RH  031%=      5-min Rain = 0
KFR1 132323Z 07003KT 14/M03 A2988 RMK A01 T01381031  RH  031%=      5-min Rain = 0
KFR1 132324Z 07003KT 14/M03 A2988 RMK A01 T01361032  RH  031%=      5-min Rain = 0
KFR1 132325Z 07004KT 14/M03 A2988 RMK A01 T01351032  RH  031%=      5-min Rain = 0
KFR1 132326Z 07003KT 13/M03 A2988 RMK A01 T01341032  RH  031%=      5-min Rain = 0
KFR1 132327Z 08003KT 13/M03 A2988 RMK A01 T01341032  RH  031%=      5-min Rain = 0
KFR1 132328Z 08003KT 13/M03 A2988 RMK A01 T01341031  RH  031%=      5-min Rain = 0
KFR1 132329Z 08003KT 14/M03 A2988 RMK A01 T01351031  RH  031%=      5-min Rain = 0
KFR1 132330Z 07003KT 14/M03 A2988 RMK A01 T01351031  RH  031%=      5-min Rain = 0
KFR1 132331Z 08003KT 14/M03 A2988 RMK A01 T01351031  RH  031%=      5-min Rain = 0
KFR1 132332Z 08003KT 13/M03 A2988 RMK A01 T01341032  RH  032%=      5-min Rain = 0
KFR1 132333Z 07003KT 13/M03 A2988 RMK A01 T01341031  RH  032%=      5-min Rain = 0
KFR1 132334Z 08004KT 13/M03 A2988 RMK A01 T01331032  RH  032%=      5-min Rain = 0
KFR1 132335Z 08003KT 13/M03 A2988 RMK A01 T01331032  RH  032%=      5-min Rain = 0
KFR1 132336Z 08003KT 13/M03 A2988 RMK A01 T01311032  RH  032%=      5-min Rain = 0
KFR1 132337Z 08004KT 13/M03 A2988 RMK A01 T01311032  RH  032%=      5-min Rain = 0
KFR1 132338Z 07004KT 13/M03 A2988 RMK A01 T01301032  RH  032%=      5-min Rain = 0
KFR1 132339Z 07004KT 13/M03 A2987 RMK A01 T01301032  RH  032%=      5-min Rain = 0
KFR1 132340Z 08004KT 13/M03 A2987 RMK A01 T01301032  RH  032%=      5-min Rain = 0
KFR1 132341Z 08004KT 13/M03 A2987 RMK A01 T01301032  RH  032%=      5-min Rain = 0
KFR1 132342Z 08004KT 13/M03 A2987 RMK A01 T01301032  RH  032%=      5-min Rain = 0
KFR1 132343Z 08004KT 13/M03 A2987 RMK A01 T01301032  RH  032%=      5-min Rain = 0
KFR1 132344Z 08004KT 13/M03 A2987 RMK A01 T01291033  RH  032%=      5-min Rain = 0
KFR1 132345Z 07004KT 13/M03 A2987 RMK A01 T01281033  RH  033%=      5-min Rain = 0
KFR1 132346Z 07004KT 13/M03 A2987 RMK A01 T01261033  RH  033%=      5-min Rain = 0
KFR1 132347Z 07004KT 13/M03 A2987 RMK A01 T01251033  RH  033%=      5-min Rain = 0
KFR1 132348Z 07004KT 13/M03 A2987 RMK A01 T01261033  RH  033%=      5-min Rain = 0
KFR1 132349Z 07004KT 13/M03 A2987 RMK A01 T01261033  RH  033%=      5-min Rain = 0
KFR1 132350Z 07004KT 13/M03 A2987 RMK A01 T01251033  RH  033%=      5-min Rain = 0
KFR1 132351Z 07004KT 13/M03 A2987 RMK A01 T01251033  RH  033%=      5-min Rain = 0
KFR1 132352Z 06004KT 13/M03 A2987 RMK A01 T01251033  RH  033%=      5-min Rain = 0
KFR1 132353Z 06005KT 13/M03 A2987 RMK A01 T01251033  RH  033%=      5-min Rain = 0
KFR1 132354Z 06004KT 13/M03 A2987 RMK A01 T01261033  RH  033%=      5-min Rain = 0
KFR1 132355Z 06004KT 13/M03 A2987 RMK A01 T01261033  RH  033%=      5-min Rain = 0
KFR1 132356Z 06004KT 13/M03 A2987 RMK A01 T01271033  RH  033%=      5-min Rain = 0
KFR1 132357Z 06004KT 13/M03 A2987 RMK A01 T01271033  RH  033%=      5-min Rain = 0
KFR1 132358Z 06004KT 13/M03 A2987 RMK A01 T01271034  RH  033%=      5-min Rain = 0
KFR1 132359Z 06004KT 13/M03 A2987 RMK A01 T01261034  RH  033%=      5-min Rain = 0
KFR1 140000Z 06004KT 13/M03 A2987 RMK A01 T01251034  RH  033%=      5-min Rain = 0
KFR1 140001Z 07003KT 12/M03 A2987 RMK A01 T01241034  RH  033%=      5-min Rain = 0
KFR1 140002Z 08003KT 12/M03 A2987 RMK A01 T01231034  RH  033%=      5-min Rain = 0
KFR1 140003Z 09003KT 12/M03 A2987 RMK A01 T01221034  RH  034%=      5-min Rain = 0
KFR1 140004Z 09003KT 12/M03 A2987 RMK A01 T01221033  RH  034%=      5-min Rain = 0
KFR1 140005Z 08003KT 12/M03 A2987 RMK A01 T01221033  RH  034%=      5-min Rain = 0
KFR1 140006Z 09003KT 12/M03 A2987 RMK A01 T01221034  RH  034%=      5-min Rain = 0
KFR1 140007Z 09003KT 12/M03 A2987 RMK A01 T01231033  RH  034%=      5-min Rain = 0
KFR1 140008Z 10003KT 12/M03 A2987 RMK A01 T01241033  RH  033%=      5-min Rain = 0
KFR1 140009Z 09004KT 13/M03 A2987 RMK A01 T01251033  RH  033%=      5-min Rain = 0
KFR1 140010Z 09004KT 13/M03 A2986 RMK A01 T01251033  RH  033%=      5-min Rain = 0
KFR1 140011Z 10004KT 13/M03 A2986 RMK A01 T01251033  RH  033%=      5-min Rain = 0
KFR1 140012Z 10004KT 12/M03 A2986 RMK A01 T01231034  RH  033%=      5-min Rain = 0
KFR1 140013Z 10005KT 12/M03 A2986 RMK A01 T01211034  RH  034%=      5-min Rain = 0
KFR1 140014Z 11005KT 12/M03 A2987 RMK A01 T01211034  RH  034%=      5-min Rain = 0
KFR1 140015Z 11004KT 12/M03 A2987 RMK A01 T01221033  RH  034%=      5-min Rain = 0
KFR1 140016Z 10004KT 12/M03 A2987 RMK A01 T01231033  RH  033%=      5-min Rain = 0
KFR1 140017Z 09004KT 12/M03 A2987 RMK A01 T01241033  RH  033%=      5-min Rain = 0
KFR1 140018Z 10004KT 12/M03 A2987 RMK A01 T01231034  RH  033%=      5-min Rain = 0
KFR1 140019Z 10004KT 12/M03 A2987 RMK A01 T01241033  RH  033%=      5-min Rain = 0
KFR1 140020Z 10004KT 12/M03 A2987 RMK A01 T01241033  RH  033%=      5-min Rain = 0
KFR1 140021Z 10005KT 12/M03 A2987 RMK A01 T01241033  RH  033%=      5-min Rain = 0
KFR1 140022Z 10004KT 12/M03 A2987 RMK A01 T01241033  RH  033%=      5-min Rain = 0
KFR1 140023Z 10004KT 12/M03 A2987 RMK A01 T01231033  RH  033%=      5-min Rain = 0
KFR1 140024Z 10003KT 12/M03 A2987 RMK A01 T01231033  RH  034%=      5-min Rain = 0
KFR1 140025Z 09003KT 12/M03 A2987 RMK A01 T01231033  RH  034%=      5-min Rain = 0
KFR1 140026Z 08003KT 12/M03 A2987 RMK A01 T01221033  RH  034%=      5-min Rain = 0
KFR1 140027Z 07003KT 12/M03 A2988 RMK A01 T01201033  RH  034%=      5-min Rain = 0
KFR1 140028Z 06003KT 12/M03 A2988 RMK A01 T01191034  RH  034%=      5-min Rain = 0
KFR1 140029Z 06003KT 12/M03 A2988 RMK A01 T01191034  RH  034%=      5-min Rain = 0
KFR1 140030Z 05004KT 12/M03 A2988 RMK A01 T01201033  RH  034%=      5-min Rain = 0
KFR1 140031Z 04004KT 12/M03 A2988 RMK A01 T01211033  RH  034%=      5-min Rain = 0
KFR1 140032Z 04004KT 12/M03 A2988 RMK A01 T01201033  RH  034%=      5-min Rain = 0
KFR1 140033Z 05004KT 12/M03 A2988 RMK A01 T01151034  RH  035%=      5-min Rain = 0
KFR1 140034Z 05004KT 11/M03 A2988 RMK A01 T01111034  RH  036%=      5-min Rain = 0
KFR1 140035Z 05005KT 11/M04 A2988 RMK A01 T01071035  RH  037%=      5-min Rain = 0
KFR1 140036Z 05005KT 11/M03 A2988 RMK A01 T01071034  RH  037%=      5-min Rain = 0
KFR1 140037Z 04003KT 11/M03 A2988 RMK A01 T01061033  RH  037%=      5-min Rain = 0
KFR1 140038Z 04003KT 11/M03 A2988 RMK A01 T01051033  RH  038%=      5-min Rain = 0
KFR1 140039Z 04003KT 10/M03 A2988 RMK A01 T01041033  RH  038%=      5-min Rain = 0
KFR1 140040Z 04003KT 10/M03 A2988 RMK A01 T01041033  RH  038%=      5-min Rain = 0
KFR1 140041Z 04002KT 11/M03 A2988 RMK A01 T01051032  RH  038%=      5-min Rain = 0
KFR1 140042Z 04002KT 11/M03 A2988 RMK A01 T01061032  RH  038%=      5-min Rain = 0
KFR1 140043Z 04002KT 11/M03 A2988 RMK A01 T01071031  RH  038%=      5-min Rain = 0
KFR1 140044Z 05002KT 11/M03 A2988 RMK A01 T01071031  RH  038%=      5-min Rain = 0
KFR1 140045Z 05001KT 11/M03 A2988 RMK A01 T01081031  RH  038%=      5-min Rain = 0
KFR1 140046Z 05002KT 11/M03 A2988 RMK A01 T01091030  RH  038%=      5-min Rain = 0
KFR1 140047Z 07001KT 11/M03 A2988 RMK A01 T01101030  RH  038%=      5-min Rain = 0
KFR1 140048Z 08001KT 11/M03 A2989 RMK A01 T01111029  RH  037%=      5-min Rain = 0
KFR1 140049Z 10001KT 11/M03 A2989 RMK A01 T01111030  RH  037%=      5-min Rain = 0
KFR1 140050Z 09002KT 11/M03 A2989 RMK A01 T01121030  RH  037%=      5-min Rain = 0
KFR1 140051Z 09002KT 11/M03 A2989 RMK A01 T01131030  RH  037%=      5-min Rain = 0
KFR1 140052Z 08002KT 11/M03 A2989 RMK A01 T01131031  RH  036%=      5-min Rain = 0
KFR1 140053Z 07002KT 11/M03 A299 RMK A01 T01141030  RH  036%=      5-min Rain = 0
KFR1 140054Z 07002KT 11/M03 A299 RMK A01 T01141030  RH  036%=      5-min Rain = 0
KFR1 140055Z 05002KT 11/M03 A299 RMK A01 T01141030  RH  036%=      5-min Rain = 0
KFR1 140056Z 05002KT 11/M03 A299 RMK A01 T01141030  RH  036%=      5-min Rain = 0
KFR1 140057Z 05002KT 11/M03 A299 RMK A01 T01141030  RH  036%=      5-min Rain = 0
KFR1 140058Z 05002KT 11/M03 A299 RMK A01 T01131030  RH  036%=      5-min Rain = 0
KFR1 140059Z 04002KT 11/M03 A299 RMK A01 T01131030  RH  037%=      5-min Rain = 0
KFR1 140100Z 05002KT 11/M03 A299 RMK A01 T01121030  RH  037%=      5-min Rain = 0
KFR1 140101Z 04002KT 11/M03 A299 RMK A01 T01111030  RH  037%=      5-min Rain = 0
KFR1 140102Z 03002KT 11/M03 A299 RMK A01 T01101030  RH  037%=      5-min Rain = 0
KFR1 140103Z 04002KT 11/M03 A2991 RMK A01 T01091030  RH  038%=      5-min Rain = 0
KFR1 140104Z 04002KT 11/M03 A2991 RMK A01 T01081030  RH  038%=      5-min Rain = 0
KFR1 140105Z 03002KT 11/M03 A2991 RMK A01 T01071031  RH  038%=      5-min Rain = 0
KFR1 140106Z 03002KT 11/M03 A2991 RMK A01 T01061031  RH  038%=      5-min Rain = 0
KFR1 140107Z 05002KT 11/M03 A2991 RMK A01 T01051031  RH  038%=      5-min Rain = 0
KFR1 140108Z 06002KT 10/M03 A2991 RMK A01 T01041031  RH  039%=      5-min Rain = 0
KFR1 140109Z 06002KT 10/M03 A2991 RMK A01 T01031030  RH  039%=      5-min Rain = 0
KFR1 140110Z 06002KT 10/M03 A2991 RMK A01 T01021030  RH  039%=      5-min Rain = 0
KFR1 140111Z 06003KT 10/M03 A2991 RMK A01 T01021031  RH  039%=      5-min Rain = 0
KFR1 140112Z 05003KT 10/M03 A2991 RMK A01 T01011031  RH  039%=      5-min Rain = 0
KFR1 140113Z 04003KT 10/M03 A2991 RMK A01 T01001031  RH  040%=      5-min Rain = 0
KFR1 140114Z 04003KT 10/M03 A2991 RMK A01 T00991030  RH  040%=      5-min Rain = 0
KFR1 140115Z 04003KT 10/M03 A2991 RMK A01 T00981029  RH  041%=      5-min Rain = 0
KFR1 140116Z 04003KT 10/M03 A2991 RMK A01 T00971028  RH  041%=      5-min Rain = 0
KFR1 140117Z 04002KT 10/M03 A2991 RMK A01 T00971026  RH  042%=      5-min Rain = 0
KFR1 140118Z 04002KT 10/M03 A2991 RMK A01 T00971026  RH  042%=      5-min Rain = 0
KFR1 140119Z 04003KT 10/M03 A2991 RMK A01 T00961027  RH  042%=      5-min Rain = 0
KFR1 140120Z 04003KT 10/M03 A2991 RMK A01 T00961027  RH  042%=      5-min Rain = 0
KFR1 140121Z 05003KT 10/M03 A2991 RMK A01 T00961026  RH  042%=      5-min Rain = 0
KFR1 140122Z 05002KT 10/M03 A2991 RMK A01 T00961026  RH  042%=      5-min Rain = 0
KFR1 140123Z 06002KT 10/M03 A2992 RMK A01 T00961026  RH  042%=      5-min Rain = 0
KFR1 140124Z 06002KT 10/M03 A2992 RMK A01 T00971026  RH  042%=      5-min Rain = 0
KFR1 140125Z 06003KT 10/M03 A2992 RMK A01 T00971026  RH  042%=      5-min Rain = 0
KFR1 140126Z 05003KT 10/M03 A2992 RMK A01 T00961026  RH  042%=      5-min Rain = 0
KFR1 140127Z 06004KT 10/M03 A2992 RMK A01 T00961026  RH  042%=      5-min Rain = 0
KFR1 140128Z 06004KT 10/M03 A2992 RMK A01 T00981025  RH  042%=      5-min Rain = 0
KFR1 140129Z 06005KT 10/M03 A2992 RMK A01 T00991026  RH  042%=      5-min Rain = 0
KFR1 140130Z 05005KT 10/M03 A2992 RMK A01 T01001026  RH  041%=      5-min Rain = 0
KFR1 140131Z 05006KT 10/M03 A2992 RMK A01 T01011025  RH  041%=      5-min Rain = 0
KFR1 140132Z 05005KT 10/M03 A2992 RMK A01 T01011026  RH  041%=      5-min Rain = 0
KFR1 140133Z 05006KT 10/M03 A2992 RMK A01 T01031026  RH  040%=      5-min Rain = 0
KFR1 140134Z 06006KT 10/M03 A2992 RMK A01 T01031027  RH  040%=      5-min Rain = 0
KFR1 140135Z 06006KT 10/M03 A2992 RMK A01 T01041028  RH  040%=      5-min Rain = 0
KFR1 140136Z 06006KT 10/M03 A2992 RMK A01 T01041028  RH  040%=      5-min Rain = 0
KFR1 140137Z 06006KT 10/M03 A2992 RMK A01 T01041028  RH  040%=      5-min Rain = 0
KFR1 140138Z 07004KT 10/M03 A2991 RMK A01 T01031028  RH  040%=      5-min Rain = 0
KFR1 140139Z 07003KT 10/M03 A2991 RMK A01 T00981031  RH  040%=      5-min Rain = 0
KFR1 140140Z 05004KT 09/M03 A2991 RMK A01 T00941032  RH  041%=      5-min Rain = 0
KFR1 140141Z 06003KT 09/M03 A2991 RMK A01 T00911032  RH  042%=      5-min Rain = 0
KFR1 140142Z 05003KT 09/M03 A2991 RMK A01 T00911031  RH  042%=      5-min Rain = 0
KFR1 140143Z 06004KT 09/M03 A2991 RMK A01 T00911030  RH  042%=      5-min Rain = 0
KFR1 140144Z 06004KT 09/M03 A2991 RMK A01 T00921030  RH  042%=      5-min Rain = 0
KFR1 140145Z 06003KT 09/M03 A2991 RMK A01 T00931030  RH  042%=      5-min Rain = 0
KFR1 140146Z 06003KT 09/M03 A2991 RMK A01 T00921030  RH  042%=      5-min Rain = 0
KFR1 140147Z 05003KT 09/M03 A2991 RMK A01 T00921030  RH  042%=      5-min Rain = 0
KFR1 140148Z 04003KT 09/M03 A2991 RMK A01 T00911030  RH  042%=      5-min Rain = 0
KFR1 140149Z 04003KT 09/M03 A2992 RMK A01 T00901031  RH  043%=      5-min Rain = 0
KFR1 140150Z 04003KT 09/M03 A2992 RMK A01 T00881031  RH  043%=      5-min Rain = 0
KFR1 140151Z 04002KT 09/M03 A2992 RMK A01 T00881031  RH  043%=      5-min Rain = 0
KFR1 140152Z 06002KT 09/M03 A2992 RMK A01 T00881031  RH  043%=      5-min Rain = 0
KFR1 140153Z 05002KT 09/M03 A2992 RMK A01 T00881030  RH  043%=      5-min Rain = 0
KFR1 140154Z 05002KT 09/M03 A2992 RMK A01 T00891030  RH  043%=      5-min Rain = 0
KFR1 140155Z 06002KT 09/M03 A2992 RMK A01 T00891030  RH  043%=      5-min Rain = 0
KFR1 140156Z 06004KT 09/M03 A2992 RMK A01 T00891030  RH  043%=      5-min Rain = 0
KFR1 140157Z 07004KT 09/M03 A2992 RMK A01 T00901030  RH  043%=      5-min Rain = 0
KFR1 140158Z 07003KT 09/M03 A2992 RMK A01 T00901031  RH  043%=      5-min Rain = 0
KFR1 140159Z 07003KT 09/M03 A2992 RMK A01 T00891031  RH  043%=      5-min Rain = 0
KFR1 140200Z 08002KT 09/M03 A2992 RMK A01 T00891031  RH  043%=      5-min Rain = 0
KFR1 140201Z 07002KT 09/M03 A2992 RMK A01 T00891031  RH  043%=      5-min Rain = 0
KFR1 140202Z 06002KT 09/M03 A2992 RMK A01 T00881032  RH  043%=      5-min Rain = 0
KFR1 140203Z 07003KT 09/M03 A2992 RMK A01 T00871031  RH  043%=      5-min Rain = 0
KFR1 140204Z 07002KT 09/M03 A2993 RMK A01 T00871032  RH  043%=      5-min Rain = 0
KFR1 140205Z 05002KT 09/M03 A2993 RMK A01 T00871031  RH  043%=      5-min Rain = 0
KFR1 140206Z 04001KT 09/M03 A2993 RMK A01 T00861031  RH  043%=      5-min Rain = 0
KFR1 140207Z 01001KT 09/M03 A2993 RMK A01 T00861031  RH  043%=      5-min Rain = 0
KFR1 140208Z 01002KT 09/M03 A2993 RMK A01 T00861031  RH  043%=      5-min Rain = 0
KFR1 140209Z 00002KT 09/M03 A2993 RMK A01 T00851032  RH  044%=      5-min Rain = 0
KFR1 140210Z 36002KT 09/M03 A2993 RMK A01 T00851032  RH  044%=      5-min Rain = 0
KFR1 140211Z 01001KT 08/M03 A2993 RMK A01 T00841032  RH  044%=      5-min Rain = 0
KFR1 140212Z 00001KT 08/M03 A2993 RMK A01 T00841032  RH  044%=      5-min Rain = 0
KFR1 140213Z 35000KT 08/M03 A2992 RMK A01 T00841032  RH  044%=      5-min Rain = 0
KFR1 140214Z 08001KT 08/M03 A2992 RMK A01 T00841032  RH  044%=      5-min Rain = 0
KFR1 140215Z 08001KT 08/M03 A2992 RMK A01 T00841031  RH  044%=      5-min Rain = 0
KFR1 140216Z 09001KT 08/M03 A2992 RMK A01 T00841031  RH  044%=      5-min Rain = 0
KFR1 140217Z 09001KT 08/M03 A2992 RMK A01 T00841031  RH  044%=      5-min Rain = 0
KFR1 140218Z 08001KT 08/M03 A2992 RMK A01 T00841031  RH  044%=      5-min Rain = 0
KFR1 140219Z 09002KT 08/M03 A2992 RMK A01 T00841031  RH  044%=      5-min Rain = 0
KFR1 140220Z 09002KT 08/M03 A2993 RMK A01 T00841031  RH  044%=      5-min Rain = 0
KFR1 140221Z 10001KT 08/M03 A2993 RMK A01 T00841031  RH  044%=      5-min Rain = 0
KFR1 140222Z 10001KT 08/M03 A2993 RMK A01 T00841031  RH  044%=      5-min Rain = 0
KFR1 140223Z 10001KT 08/M03 A2993 RMK A01 T00841031  RH  044%=      5-min Rain = 0
KFR1 140224Z 10000KT 08/M03 A2993 RMK A01 T00841031  RH  044%=      5-min Rain = 0
KFR1 140225Z 10000KT 08/M03 A2993 RMK A01 T00841031  RH  044%=      5-min Rain = 0
KFR1 140226Z 11001KT 08/M03 A2993 RMK A01 T00841031  RH  044%=      5-min Rain = 0
KFR1 140227Z 10001KT 08/M03 A2993 RMK A01 T00841031  RH  044%=      5-min Rain = 0
KFR1 140228Z 08001KT 08/M03 A2993 RMK A01 T00841032  RH  044%=      5-min Rain = 0
KFR1 140229Z 06001KT 09/M03 A2993 RMK A01 T00851032  RH  044%=      5-min Rain = 0
KFR1 140230Z 06002KT 09/M03 A2993 RMK A01 T00851031  RH  044%=      5-min Rain = 0
KFR1 140231Z 06002KT 09/M03 A2993 RMK A01 T00851031  RH  044%=      5-min Rain = 0
KFR1 140232Z 05002KT 09/M03 A2993 RMK A01 T00851031  RH  044%=      5-min Rain = 0
KFR1 140233Z 04002KT 09/M03 A2993 RMK A01 T00851032  RH  044%=      5-min Rain = 0
KFR1 140234Z 03002KT 08/M03 A2993 RMK A01 T00831032  RH  044%=      5-min Rain = 0
KFR1 140235Z 02002KT 08/M03 A2993 RMK A01 T00831032  RH  044%=      5-min Rain = 0
KFR1 140236Z 03002KT 08/M03 A2993 RMK A01 T00821032  RH  045%=      5-min Rain = 0
KFR1 140237Z 00001KT 08/M03 A2993 RMK A01 T00821031  RH  045%=      5-min Rain = 0
KFR1 140238Z 01001KT 08/M03 A2993 RMK A01 T00821031  RH  045%=      5-min Rain = 0
KFR1 140239Z 01001KT 08/M03 A2993 RMK A01 T00811030  RH  045%=      5-min Rain = 0
KFR1 140240Z 02002KT 08/M02 A2993 RMK A01 T00801024  RH  048%=      5-min Rain = 0
KFR1 140241Z 03002KT 08/M02 A2993 RMK A01 T00791018  RH  050%=      5-min Rain = 0
KFR1 140242Z 03002KT 08/M03 A2994 RMK A01 T00781027  RH  047%=      5-min Rain = 0
KFR1 140243Z 03001KT 08/M03 A2994 RMK A01 T00781030  RH  046%=      5-min Rain = 0
KFR1 140244Z 03001KT 08/M03 A2994 RMK A01 T00781030  RH  047%=      5-min Rain = 0
KFR1 140245Z 03001KT 08/M03 A2994 RMK A01 T00771029  RH  047%=      5-min Rain = 0
KFR1 140246Z 03001KT 08/M03 A2994 RMK A01 T00771028  RH  047%=      5-min Rain = 0
KFR1 140247Z 03001KT 08/M03 A2994 RMK A01 T00781026  RH  048%=      5-min Rain = 0
KFR1 140248Z 04001KT 08/M03 A2994 RMK A01 T00771026  RH  048%=      5-min Rain = 0
KFR1 140249Z 04001KT 08/M03 A2994 RMK A01 T00761026  RH  048%=      5-min Rain = 0
KFR1 140250Z 04000KT 08/M03 A2994 RMK A01 T00761025  RH  049%=      5-min Rain = 0
KFR1 140251Z 29000KT 08/M02 A2994 RMK A01 T00761022  RH  050%=      5-min Rain = 0
KFR1 140252Z 29002KT 08/M01 A2994 RMK A01 T00761014  RH  053%=      5-min Rain = 0
KFR1 140253Z 29002KT 08/M01 A2994 RMK A01 T00771012  RH  054%=      5-min Rain = 0
KFR1 140254Z 28001KT 08/M01 A2994 RMK A01 T00771011  RH  054%=      5-min Rain = 0
KFR1 140255Z 28001KT 08/M01 A2994 RMK A01 T00771011  RH  054%=      5-min Rain = 0
KFR1 140256Z 27001KT 08/M01 A2994 RMK A01 T00771011  RH  054%=      5-min Rain = 0
KFR1 140257Z 27001KT 08/M01 A2994 RMK A01 T00761010  RH  054%=      5-min Rain = 0
KFR1 140258Z 28002KT 08/M01 A2995 RMK A01 T00761011  RH  054%=      5-min Rain = 0
KFR1 140259Z 29003KT 08/M01 A2995 RMK A01 T00761011  RH  054%=      5-min Rain = 0
KFR1 140300Z 32004KT 08/M01 A2995 RMK A01 T00761012  RH  054%=      5-min Rain = 0
KFR1 140301Z 33006KT 08/M01 A2996 RMK A01 T00751013  RH  053%=      5-min Rain = 0
KFR1 140302Z 34004KT 07/M01 A2996 RMK A01 T00741013  RH  054%=      5-min Rain = 0
KFR1 140303Z 33003KT 07/M01 A2996 RMK A01 T00711009  RH  057%=      5-min Rain = 0
KFR1 140304Z 33003KT 07/M01 A2996 RMK A01 T00671006  RH  059%=      5-min Rain = 0
KFR1 140305Z 35005KT 07/M01 A2996 RMK A01 T00651006  RH  060%=      5-min Rain = 0
KFR1 140306Z 03003KT 07/M01 A2996 RMK A01 T00651006  RH  061%=      5-min Rain = 0
KFR1 140307Z 04003KT 06/M01 A2995 RMK A01 T00641007  RH  060%=      5-min Rain = 0
KFR1 140308Z 01002KT 06/M01 A2995 RMK A01 T00631010  RH  060%=      5-min Rain = 0
KFR1 140309Z 35002KT 06/M01 A2995 RMK A01 T00621013  RH  059%=      5-min Rain = 0
KFR1 140310Z 35002KT 06/M01 A2995 RMK A01 T00621014  RH  058%=      5-min Rain = 0
KFR1 140311Z 36002KT 06/M01 A2996 RMK A01 T00631014  RH  058%=      5-min Rain = 0
KFR1 140312Z 00002KT 06/M02 A2996 RMK A01 T00631015  RH  057%=      5-min Rain = 0
KFR1 140313Z 01003KT 07/M02 A2996 RMK A01 T00651016  RH  056%=      5-min Rain = 0
KFR1 140314Z 01003KT 07/M02 A2996 RMK A01 T00661016  RH  056%=      5-min Rain = 0
KFR1 140315Z 01003KT 07/M02 A2996 RMK A01 T00671015  RH  056%=      5-min Rain = 0
KFR1 140316Z 01003KT 07/M01 A2996 RMK A01 T00691013  RH  056%=      5-min Rain = 0
KFR1 140317Z 01003KT 07/M01 A2997 RMK A01 T00691012  RH  056%=      5-min Rain = 0
KFR1 140318Z 01002KT 07/M01 A2997 RMK A01 T00691011  RH  057%=      5-min Rain = 0
KFR1 140319Z 01002KT 07/M01 A2997 RMK A01 T00701009  RH  057%=      5-min Rain = 0
KFR1 140320Z 01002KT 07/M01 A2997 RMK A01 T00701009  RH  057%=      5-min Rain = 0
KFR1 140321Z 02002KT 07/M01 A2997 RMK A01 T00701009  RH  057%=      5-min Rain = 0
KFR1 140322Z 02002KT 07/M01 A2997 RMK A01 T00691010  RH  057%=      5-min Rain = 0
KFR1 140323Z 01002KT 07/M01 A2997 RMK A01 T00691011  RH  057%=      5-min Rain = 0
KFR1 140324Z 01003KT 07/M01 A2997 RMK A01 T00681011  RH  057%=      5-min Rain = 0
KFR1 140325Z 01003KT 07/M01 A2997 RMK A01 T00681011  RH  057%=      5-min Rain = 0
KFR1 140326Z 01003KT 07/M01 A2997 RMK A01 T00681011  RH  057%=      5-min Rain = 0
KFR1 140327Z 01003KT 07/M01 A2997 RMK A01 T00671011  RH  057%=      5-min Rain = 0
KFR1 140328Z 02003KT 07/M01 A2997 RMK A01 T00671011  RH  058%=      5-min Rain = 0
KFR1 140329Z 04002KT 07/M01 A2997 RMK A01 T00661011  RH  058%=      5-min Rain = 0
KFR1 140330Z 06002KT 07/M01 A2997 RMK A01 T00661011  RH  058%=      5-min Rain = 0
KFR1 140331Z 05003KT 07/M01 A2996 RMK A01 T00651012  RH  058%=      5-min Rain = 0
KFR1 140332Z 05002KT 07/M01 A2996 RMK A01 T00651012  RH  058%=      5-min Rain = 0
KFR1 140333Z 04002KT 06/M01 A2996 RMK A01 T00641012  RH  058%=      5-min Rain = 0
KFR1 140334Z 04001KT 06/M01 A2996 RMK A01 T00641010  RH  059%=      5-min Rain = 0
KFR1 140335Z 04001KT 06/M01 A2997 RMK A01 T00631010  RH  060%=      5-min Rain = 0
KFR1 140336Z 03002KT 06/M01 A2997 RMK A01 T00621009  RH  060%=      5-min Rain = 0
KFR1 140337Z 02002KT 06/M01 A2997 RMK A01 T00631006  RH  061%=      5-min Rain = 0
KFR1 140338Z 03002KT 06/M01 A2997 RMK A01 T00631005  RH  062%=      5-min Rain = 0
KFR1 140339Z 03001KT 06/M00 A2997 RMK A01 T00631004  RH  062%=      5-min Rain = 0
KFR1 140340Z 03001KT 06/M00 A2997 RMK A01 T00631003  RH  062%=      5-min Rain = 0
KFR1 140341Z 03001KT 06/M00 A2997 RMK A01 T00631003  RH  063%=      5-min Rain = 0
KFR1 140342Z 03001KT 06/M00 A2997 RMK A01 T00631002  RH  063%=      5-min Rain = 0
KFR1 140343Z 00002KT 06/M00 A2997 RMK A01 T00621002  RH  063%=      5-min Rain = 0
KFR1 140344Z 36001KT 06/M00 A2997 RMK A01 T00621002  RH  064%=      5-min Rain = 0
KFR1 140345Z 35001KT 06/M00 A2997 RMK A01 T00621004  RH  062%=      5-min Rain = 0
KFR1 140346Z 36002KT 06/M01 A2997 RMK A01 T00621007  RH  061%=      5-min Rain = 0
KFR1 140347Z 02001KT 06/M01 A2997 RMK A01 T00621010  RH  060%=      5-min Rain = 0
KFR1 140348Z 01003KT 06/M01 A2997 RMK A01 T00621012  RH  059%=      5-min Rain = 0
KFR1 140349Z 00003KT 06/M01 A2998 RMK A01 T00621013  RH  058%=      5-min Rain = 0
KFR1 140350Z 36003KT 06/M01 A2998 RMK A01 T00631014  RH  058%=      5-min Rain = 0
KFR1 140351Z 36002KT 06/M02 A2998 RMK A01 T00631015  RH  057%=      5-min Rain = 0
KFR1 140352Z 34003KT 06/M02 A2998 RMK A01 T00631016  RH  057%=      5-min Rain = 0
KFR1 140353Z 36003KT 06/M02 A2998 RMK A01 T00631016  RH  057%=      5-min Rain = 0
KFR1 140354Z 01002KT 06/M01 A2998 RMK A01 T00631014  RH  058%=      5-min Rain = 0
KFR1 140355Z 00002KT 06/M01 A2998 RMK A01 T00641014  RH  058%=      5-min Rain = 0
KFR1 140356Z 02002KT 06/M01 A2998 RMK A01 T00641013  RH  058%=      5-min Rain = 0
KFR1 140357Z 03003KT 06/M01 A2998 RMK A01 T00641014  RH  057%=      5-min Rain = 0
KFR1 140358Z 02004KT 07/M02 A2998 RMK A01 T00651016  RH  056%=      5-min Rain = 0
KFR1 140359Z 03003KT 07/M02 A2998 RMK A01 T00651016  RH  056%=      5-min Rain = 0
KFR1 140400Z 02003KT 07/M02 A2998 RMK A01 T00661017  RH  056%=      5-min Rain = 0
KFR1 140401Z 01003KT 07/M02 A2998 RMK A01 T00661017  RH  056%=      5-min Rain = 0
KFR1 140402Z 01003KT 07/M02 A2998 RMK A01 T00651016  RH  056%=      5-min Rain = 0
KFR1 140403Z 02004KT 06/M02 A2998 RMK A01 T00641016  RH  057%=      5-min Rain = 0
KFR1 140404Z 03004KT 06/M01 A2998 RMK A01 T00631014  RH  058%=      5-min Rain = 0
KFR1 140405Z 03003KT 06/M01 A2998 RMK A01 T00621013  RH  058%=      5-min Rain = 0
KFR1 140406Z 03004KT 06/M01 A2998 RMK A01 T00621014  RH  058%=      5-min Rain = 0
KFR1 140407Z 04003KT 06/M02 A2998 RMK A01 T00621015  RH  058%=      5-min Rain = 0
KFR1 140408Z 04004KT 06/M02 A2998 RMK A01 T00621015  RH  058%=      5-min Rain = 0
KFR1 140409Z 04004KT 06/M02 A2998 RMK A01 T00621015  RH  057%=      5-min Rain = 0
KFR1 140410Z 03004KT 06/M02 A2998 RMK A01 T00631015  RH  057%=      5-min Rain = 0
KFR1 140411Z 04004KT 06/M02 A2998 RMK A01 T00631016  RH  057%=      5-min Rain = 0
KFR1 140412Z 04003KT 06/M02 A2998 RMK A01 T00631016  RH  057%=      5-min Rain = 0
KFR1 140413Z 04004KT 06/M02 A2998 RMK A01 T00641016  RH  057%=      5-min Rain = 0
KFR1 140414Z 03004KT 06/M02 A2998 RMK A01 T00641016  RH  057%=      5-min Rain = 0
KFR1 140415Z 03004KT 06/M02 A2998 RMK A01 T00641015  RH  057%=      5-min Rain = 0
KFR1 140416Z 03004KT 06/M02 A2998 RMK A01 T00641015  RH  057%=      5-min Rain = 0
KFR1 140417Z 03004KT 06/M02 A2998 RMK A01 T00641015  RH  057%=      5-min Rain = 0
KFR1 140418Z 03003KT 06/M01 A2998 RMK A01 T00641014  RH  057%=      5-min Rain = 0
KFR1 140419Z 03003KT 06/M02 A2998 RMK A01 T00631015  RH  057%=      5-min Rain = 0
KFR1 140420Z 04003KT 06/M02 A2998 RMK A01 T00631015  RH  057%=      5-min Rain = 0
KFR1 140421Z 04003KT 06/M02 A2998 RMK A01 T00631015  RH  057%=      5-min Rain = 0
KFR1 140422Z 04003KT 06/M02 A2998 RMK A01 T00631015  RH  057%=      5-min Rain = 0
KFR1 140423Z 04003KT 06/M02 A2998 RMK A01 T00631015  RH  057%=      5-min Rain = 0
KFR1 140424Z 04003KT 06/M02 A2998 RMK A01 T00631016  RH  057%=      5-min Rain = 0
KFR1 140425Z 04003KT 06/M02 A2998 RMK A01 T00621017  RH  057%=      5-min Rain = 0
KFR1 140426Z 05002KT 06/M02 A2998 RMK A01 T00621017  RH  057%=      5-min Rain = 0
KFR1 140427Z 04003KT 06/M02 A2998 RMK A01 T00631018  RH  056%=      5-min Rain = 0
KFR1 140428Z 04003KT 06/M02 A2998 RMK A01 T00631019  RH  056%=      5-min Rain = 0
KFR1 140429Z 05003KT 06/M02 A2998 RMK A01 T00631021  RH  055%=      5-min Rain = 0
KFR1 140430Z 06004KT 06/M02 A2998 RMK A01 T00641020  RH  055%=      5-min Rain = 0
KFR1 140431Z 07004KT 07/M02 A2997 RMK A01 T00651020  RH  055%=      5-min Rain = 0
KFR1 140432Z 09004KT 06/M02 A2997 RMK A01 T00641020  RH  055%=      5-min Rain = 0
KFR1 140433Z 09003KT 06/M02 A2997 RMK A01 T00631019  RH  056%=      5-min Rain = 0
KFR1 140434Z 09003KT 06/M02 A2998 RMK A01 T00631019  RH  056%=      5-min Rain = 0
KFR1 140435Z 09003KT 06/M02 A2998 RMK A01 T00631020  RH  055%=      5-min Rain = 0
KFR1 140436Z 09003KT 06/M02 A2998 RMK A01 T00631020  RH  055%=      5-min Rain = 0
KFR1 140437Z 10003KT 06/M02 A2997 RMK A01 T00631022  RH  055%=      5-min Rain = 0
KFR1 140438Z 10002KT 06/M02 A2997 RMK A01 T00641022  RH  054%=      5-min Rain = 0
KFR1 140439Z 11001KT 06/M02 A2997 RMK A01 T00641022  RH  054%=      5-min Rain = 0
KFR1 140440Z 11001KT 06/M02 A2997 RMK A01 T00641022  RH  054%=      5-min Rain = 0
KFR1 140441Z 10001KT 06/M02 A2997 RMK A01 T00641023  RH  054%=      5-min Rain = 0
KFR1 140442Z 08001KT 06/M02 A2997 RMK A01 T00641023  RH  054%=      5-min Rain = 0
KFR1 140443Z 05001KT 06/M02 A2998 RMK A01 T00631023  RH  054%=      5-min Rain = 0
KFR1 140444Z 03002KT 06/M02 A2997 RMK A01 T00631024  RH  054%=      5-min Rain = 0
KFR1 140445Z 03003KT 06/M02 A2997 RMK A01 T00631024  RH  054%=      5-min Rain = 0
KFR1 140446Z 03003KT 06/M02 A2997 RMK A01 T00631024  RH  054%=      5-min Rain = 0
KFR1 140447Z 02003KT 06/M02 A2998 RMK A01 T00631024  RH  054%=      5-min Rain = 0
KFR1 140448Z 02003KT 06/M02 A2998 RMK A01 T00631024  RH  054%=      5-min Rain = 0
KFR1 140449Z 02003KT 06/M02 A2998 RMK A01 T00621024  RH  054%=      5-min Rain = 0
KFR1 140450Z 03003KT 06/M03 A2998 RMK A01 T00621025  RH  054%=      5-min Rain = 0
KFR1 140451Z 04002KT 06/M03 A2998 RMK A01 T00631025  RH  053%=      5-min Rain = 0
KFR1 140452Z 05002KT 06/M03 A2998 RMK A01 T00631025  RH  053%=      5-min Rain = 0
KFR1 140453Z 05002KT 06/M03 A2998 RMK A01 T00641025  RH  053%=      5-min Rain = 0
KFR1 140454Z 05002KT 06/M02 A2998 RMK A01 T00641024  RH  053%=      5-min Rain = 0
KFR1 140455Z 06002KT 06/M02 A2998 RMK A01 T00641024  RH  053%=      5-min Rain = 0
KFR1 140456Z 06003KT 06/M02 A2998 RMK A01 T00641024  RH  053%=      5-min Rain = 0
KFR1 140457Z 06003KT 07/M02 A2998 RMK A01 T00651024  RH  053%=      5-min Rain = 0
KFR1 140458Z 07003KT 07/M02 A2997 RMK A01 T00651024  RH  053%=      5-min Rain = 0
KFR1 140459Z 07003KT 06/M03 A2997 RMK A01 T00641025  RH  053%=      5-min Rain = 0
KFR1 140500Z 08003KT 06/M03 A2997 RMK A01 T00641025  RH  053%=      5-min Rain = 0
KFR1 140501Z 08003KT 06/M03 A2997 RMK A01 T00641025  RH  053%=      5-min Rain = 0
KFR1 140502Z 09003KT 07/M03 A2997 RMK A01 T00651025  RH  053%=      5-min Rain = 0
KFR1 140503Z 09003KT 06/M03 A2996 RMK A01 T00641026  RH  053%=      5-min Rain = 0
KFR1 140504Z 08004KT 06/M03 A2997 RMK A01 T00641026  RH  052%=      5-min Rain = 0
KFR1 140505Z 07004KT 06/M03 A2997 RMK A01 T00641025  RH  053%=      5-min Rain = 0
KFR1 140506Z 07004KT 06/M03 A2997 RMK A01 T00641026  RH  053%=      5-min Rain = 0
KFR1 140507Z 07004KT 06/M03 A2997 RMK A01 T00631025  RH  053%=      5-min Rain = 0
KFR1 140508Z 07004KT 06/M02 A2997 RMK A01 T00631024  RH  053%=      5-min Rain = 0
KFR1 140509Z 08005KT 06/M02 A2996 RMK A01 T00621024  RH  054%=      5-min Rain = 0
KFR1 140510Z 08006KT 06/M03 A2996 RMK A01 T00611025  RH  054%=      5-min Rain = 0
KFR1 140511Z 08007KT 06/M03 A2996 RMK A01 T00611026  RH  054%=      5-min Rain = 0
KFR1 140512Z 08008KT 06/M03 A2997 RMK A01 T00621027  RH  053%=      5-min Rain = 0
KFR1 140513Z 08006KT 07/M03 A2997 RMK A01 T00661028  RH  051%=      5-min Rain = 0
KFR1 140514Z 08006KT 07/M03 A2997 RMK A01 T00661028  RH  051%=      5-min Rain = 0
KFR1 140515Z 07006KT 07/M03 A2997 RMK A01 T00661029  RH  050%=      5-min Rain = 0
KFR1 140516Z 07005KT 07/M03 A2997 RMK A01 T00661030  RH  050%=      5-min Rain = 0
KFR1 140517Z 05005KT 07/M03 A2998 RMK A01 T00661030  RH  050%=      5-min Rain = 0
KFR1 140518Z 05003KT 07/M03 A2998 RMK A01 T00661028  RH  051%=      5-min Rain = 0
KFR1 140519Z 05003KT 06/M03 A2998 RMK A01 T00641029  RH  051%=      5-min Rain = 0
KFR1 140520Z 05004KT 06/M03 A2997 RMK A01 T00621029  RH  052%=      5-min Rain = 0
KFR1 140521Z 05003KT 06/M03 A2997 RMK A01 T00621029  RH  052%=      5-min Rain = 0
KFR1 140522Z 06005KT 06/M03 A2997 RMK A01 T00611029  RH  052%=      5-min Rain = 0
KFR1 140523Z 07006KT 06/M03 A2997 RMK A01 T00611029  RH  052%=      5-min Rain = 0
KFR1 140524Z 06008KT 06/M03 A2996 RMK A01 T00611030  RH  052%=      5-min Rain = 0
KFR1 140525Z 06007KT 06/M03 A2996 RMK A01 T00631030  RH  051%=      5-min Rain = 0
KFR1 140526Z 06008KT 06/M03 A2997 RMK A01 T00641030  RH  051%=      5-min Rain = 0
KFR1 140527Z 05005KT 07/M03 A2997 RMK A01 T00651030  RH  051%=      5-min Rain = 0
KFR1 140528Z 06006KT 06/M03 A2997 RMK A01 T00641030  RH  051%=      5-min Rain = 0
KFR1 140529Z 06007KT 06/M03 A2997 RMK A01 T00641031  RH  051%=      5-min Rain = 0
KFR1 140530Z 07007KT 07/M03 A2996 RMK A01 T00661033  RH  049%=      5-min Rain = 0
KFR1 140531Z 06008KT 07/M03 A2996 RMK A01 T00671033  RH  049%=      5-min Rain = 0
KFR1 140532Z 07008KT 07/M03 A2996 RMK A01 T00681034  RH  048%=      5-min Rain = 0
KFR1 140533Z 07008KT 07/M04 A2996 RMK A01 T00681035  RH  048%=      5-min Rain = 0
KFR1 140534Z 06009KT 07/M04 A2996 RMK A01 T00691037  RH  047%=      5-min Rain = 0
KFR1 140535Z 07008KT 07/M04 A2997 RMK A01 T00701037  RH  046%=      5-min Rain = 0
KFR1 140536Z 06009KT 07/M04 A2997 RMK A01 T00711038  RH  046%=      5-min Rain = 0
KFR1 140537Z 07009KT 07/M04 A2997 RMK A01 T00721039  RH  045%=      5-min Rain = 0
KFR1 140538Z 07009KT 07/M04 A2997 RMK A01 T00721038  RH  045%=      5-min Rain = 0
KFR1 140539Z 07008KT 07/M04 A2997 RMK A01 T00721039  RH  045%=      5-min Rain = 0
KFR1 140540Z 07008KT 07/M04 A2997 RMK A01 T00721039  RH  045%=      5-min Rain = 0
KFR1 140541Z 07009KT 07/M04 A2997 RMK A01 T00711039  RH  045%=      5-min Rain = 0
KFR1 140542Z 07010KT 07/M04 A2997 RMK A01 T00721041  RH  044%=      5-min Rain = 0
KFR1 140543Z 07009KT 07/M04 A2996 RMK A01 T00731041  RH  044%=      5-min Rain = 0
KFR1 140544Z 07010KT 07/M04 A2996 RMK A01 T00731041  RH  044%=      5-min Rain = 0
KFR1 140545Z 07010KT 07/M04 A2996 RMK A01 T00731042  RH  044%=      5-min Rain = 0
KFR1 140546Z 07009KT 07/M04 A2995 RMK A01 T00731041  RH  044%=      5-min Rain = 0
KFR1 140547Z 07010KT 07/M04 A2995 RMK A01 T00731041  RH  044%=      5-min Rain = 0
KFR1 140548Z 07010KT 07/M04 A2996 RMK A01 T00721041  RH  044%=      5-min Rain = 0
KFR1 140549Z 07010KT 07/M04 A2996 RMK A01 T00731042  RH  044%=      5-min Rain = 0
KFR1 140550Z 07012KT 07/M04 A2996 RMK A01 T00741043  RH  043%=      5-min Rain = 0
KFR1 140551Z 07011KT 08/M04 A2996 RMK A01 T00761044  RH  042%=      5-min Rain = 0
KFR1 140552Z 07011KT 08/M05 A2996 RMK A01 T00761045  RH  042%=      5-min Rain = 0
KFR1 140553Z 07010KT 08/M04 A2996 RMK A01 T00771044  RH  042%=      5-min Rain = 0
KFR1 140554Z 07010KT 08/M04 A2996 RMK A01 T00761044  RH  042%=      5-min Rain = 0
KFR1 140555Z 07010KT 08/M04 A2996 RMK A01 T00761044  RH  042%=      5-min Rain = 0
KFR1 140556Z 07011KT 08/M04 A2996 RMK A01 T00761043  RH  042%=      5-min Rain = 0
KFR1 140557Z 06011KT 08/M04 A2996 RMK A01 T00761044  RH  042%=      5-min Rain = 0
KFR1 140558Z 07010KT 08/M04 A2997 RMK A01 T00761043  RH  043%=      5-min Rain = 0
KFR1 140559Z 07009KT 08/M04 A2997 RMK A01 T00751043  RH  043%=      5-min Rain = 0

Page generated in 0.0652 seconds.